Observation data for Sierra Blanca on 06/03/2020      Previous  Date  Next       Current Mesonet Observations  Soil Data  Daily Summary Page  Observations in Plain Language
KSB1 030500Z 10005KT 25/05 A301 RMK A01 T02540053  RH  027%=      5-min Rain = 0
KSB1 030501Z 09004KT 25/05 A301 RMK A01 T02540054  RH  028%=      5-min Rain = 0
KSB1 030502Z 09004KT 25/06 A301 RMK A01 T02530055  RH  028%=      5-min Rain = 0
KSB1 030503Z 09004KT 25/06 A301 RMK A01 T02520056  RH  028%=      5-min Rain = 0
KSB1 030504Z 08004KT 25/06 A301 RMK A01 T02520057  RH  028%=      5-min Rain = 0
KSB1 030505Z 08003KT 25/06 A301 RMK A01 T02520055  RH  028%=      5-min Rain = 0
KSB1 030506Z 08003KT 25/06 A301 RMK A01 T02520058  RH  029%=      5-min Rain = 0
KSB1 030507Z 09003KT 25/06 A301 RMK A01 T02530059  RH  029%=      5-min Rain = 0
KSB1 030508Z 08003KT 25/06 A301 RMK A01 T02530059  RH  029%=      5-min Rain = 0
KSB1 030509Z 07003KT 25/06 A301 RMK A01 T02530059  RH  029%=      5-min Rain = 0
KSB1 030510Z 06003KT 25/06 A301 RMK A01 T02530059  RH  029%=      5-min Rain = 0
KSB1 030511Z 06004KT 25/06 A301 RMK A01 T02530059  RH  029%=      5-min Rain = 0
KSB1 030512Z 08004KT 25/06 A301 RMK A01 T02520059  RH  029%=      5-min Rain = 0
KSB1 030513Z 07003KT 25/06 A301 RMK A01 T02510060  RH  029%=      5-min Rain = 0
KSB1 030514Z 07003KT 25/06 A301 RMK A01 T02510061  RH  030%=      5-min Rain = 0
KSB1 030515Z 07004KT 25/06 A301 RMK A01 T02510062  RH  030%=      5-min Rain = 0
KSB1 030516Z 06004KT 25/06 A301 RMK A01 T02510063  RH  030%=      5-min Rain = 0
KSB1 030517Z 05003KT 25/06 A3011 RMK A01 T02520063  RH  030%=      5-min Rain = 0
KSB1 030518Z 05003KT 25/07 A3011 RMK A01 T02530066  RH  030%=      5-min Rain = 0
KSB1 030519Z 04004KT 26/07 A3011 RMK A01 T02550067  RH  030%=      5-min Rain = 0
KSB1 030520Z 05004KT 26/07 A3011 RMK A01 T02560067  RH  030%=      5-min Rain = 0
KSB1 030521Z 03004KT 26/07 A3011 RMK A01 T02560066  RH  030%=      5-min Rain = 0
KSB1 030522Z 03005KT 26/07 A3011 RMK A01 T02560066  RH  030%=      5-min Rain = 0
KSB1 030523Z 04005KT 26/07 A3011 RMK A01 T02560067  RH  030%=      5-min Rain = 0
KSB1 030524Z 04007KT 26/07 A3011 RMK A01 T02570067  RH  030%=      5-min Rain = 0
KSB1 030525Z 04005KT 26/07 A3011 RMK A01 T02580068  RH  030%=      5-min Rain = 0
KSB1 030526Z 04005KT 26/07 A3011 RMK A01 T02580066  RH  029%=      5-min Rain = 0
KSB1 030527Z 03005KT 26/06 A3011 RMK A01 T02570064  RH  029%=      5-min Rain = 0
KSB1 030528Z 03006KT 26/06 A3011 RMK A01 T02550063  RH  029%=      5-min Rain = 0
KSB1 030529Z 03007KT 25/06 A3011 RMK A01 T02530062  RH  029%=      5-min Rain = 0
KSB1 030530Z 03006KT 25/06 A3011 RMK A01 T02520062  RH  029%=      5-min Rain = 0
KSB1 030531Z 03006KT 25/06 A3011 RMK A01 T02520062  RH  030%=      5-min Rain = 0
KSB1 030532Z 04006KT 25/06 A3011 RMK A01 T02510062  RH  030%=      5-min Rain = 0
KSB1 030533Z 03006KT 25/06 A3011 RMK A01 T02510062  RH  030%=      5-min Rain = 0
KSB1 030534Z 03006KT 25/06 A3011 RMK A01 T02510062  RH  030%=      5-min Rain = 0
KSB1 030535Z 04006KT 25/06 A3011 RMK A01 T02500063  RH  030%=      5-min Rain = 0
KSB1 030536Z 04005KT 25/06 A3011 RMK A01 T02500064  RH  030%=      5-min Rain = 0
KSB1 030537Z 05005KT 25/07 A3011 RMK A01 T02510065  RH  030%=      5-min Rain = 0
KSB1 030538Z 06005KT 25/07 A3011 RMK A01 T02510066  RH  031%=      5-min Rain = 0
KSB1 030539Z 06005KT 25/07 A3011 RMK A01 T02510066  RH  031%=      5-min Rain = 0
KSB1 030540Z 05005KT 25/07 A3011 RMK A01 T02520067  RH  031%=      5-min Rain = 0
KSB1 030541Z 06005KT 25/07 A3011 RMK A01 T02520067  RH  031%=      5-min Rain = 0
KSB1 030542Z 06006KT 25/07 A3011 RMK A01 T02520067  RH  031%=      5-min Rain = 0
KSB1 030543Z 07007KT 25/07 A3011 RMK A01 T02520067  RH  031%=      5-min Rain = 0
KSB1 030544Z 07005KT 25/07 A3011 RMK A01 T02520068  RH  031%=      5-min Rain = 0
KSB1 030545Z 07005KT 25/07 A3011 RMK A01 T02520068  RH  031%=      5-min Rain = 0
KSB1 030546Z 08006KT 25/07 A3011 RMK A01 T02510068  RH  031%=      5-min Rain = 0
KSB1 030547Z 08006KT 25/07 A3011 RMK A01 T02520069  RH  031%=      5-min Rain = 0
KSB1 030548Z 08006KT 25/07 A3011 RMK A01 T02510069  RH  031%=      5-min Rain = 0
KSB1 030549Z 08006KT 25/07 A3011 RMK A01 T02510069  RH  031%=      5-min Rain = 0
KSB1 030550Z 09005KT 25/07 A3011 RMK A01 T02510069  RH  031%=      5-min Rain = 0
KSB1 030551Z 10005KT 25/07 A3011 RMK A01 T02510069  RH  031%=      5-min Rain = 0
KSB1 030552Z 09005KT 25/07 A3011 RMK A01 T02510069  RH  031%=      5-min Rain = 0
KSB1 030553Z 09005KT 25/07 A3011 RMK A01 T02510069  RH  031%=      5-min Rain = 0
KSB1 030554Z 10006KT 25/07 A3011 RMK A01 T02510070  RH  031%=      5-min Rain = 0
KSB1 030555Z 10005KT 25/07 A3011 RMK A01 T02510070  RH  031%=      5-min Rain = 0
KSB1 030556Z 11005KT 25/07 A3011 RMK A01 T02520070  RH  031%=      5-min Rain = 0
KSB1 030557Z 11004KT 25/07 A3011 RMK A01 T02520070  RH  031%=      5-min Rain = 0
KSB1 030558Z 11005KT 25/07 A3011 RMK A01 T02520070  RH  031%=      5-min Rain = 0
KSB1 030559Z 12004KT 25/07 A3011 RMK A01 T02510070  RH  031%=      5-min Rain = 0
KSB1 030600Z 11004KT 25/07 A3011 RMK A01 T02510070  RH  031%=      5-min Rain = 0
KSB1 030601Z 11005KT 25/07 A3011 RMK A01 T02500070  RH  032%=      5-min Rain = 0
KSB1 030602Z 11004KT 25/07 A3011 RMK A01 T02510071  RH  032%=      5-min Rain = 0
KSB1 030603Z 12005KT 25/07 A3011 RMK A01 T02510070  RH  032%=      5-min Rain = 0
KSB1 030604Z 12008KT 25/07 A3011 RMK A01 T02500071  RH  032%=      5-min Rain = 0
KSB1 030605Z 11010KT 25/07 A3011 RMK A01 T02500072  RH  032%=      5-min Rain = 0
KSB1 030606Z 11007KT 25/07 A3011 RMK A01 T02520074  RH  032%=      5-min Rain = 0
KSB1 030607Z 12008KT 25/07 A3011 RMK A01 T02530073  RH  032%=      5-min Rain = 0
KSB1 030608Z 12007KT 25/07 A3011 RMK A01 T02530073  RH  032%=      5-min Rain = 0
KSB1 030609Z 12006KT 25/07 A3011 RMK A01 T02520072  RH  032%=      5-min Rain = 0
KSB1 030610Z 13006KT 25/07 A3011 RMK A01 T02510072  RH  032%=      5-min Rain = 0
KSB1 030611Z 13005KT 25/07 A3011 RMK A01 T02500071  RH  032%=      5-min Rain = 0
KSB1 030612Z 14005KT 25/07 A3011 RMK A01 T02490072  RH  032%=      5-min Rain = 0
KSB1 030613Z 14005KT 25/07 A3011 RMK A01 T02490072  RH  032%=      5-min Rain = 0
KSB1 030614Z 14005KT 25/07 A3011 RMK A01 T02480072  RH  032%=      5-min Rain = 0
KSB1 030615Z 13006KT 25/07 A3011 RMK A01 T02470072  RH  033%=      5-min Rain = 0
KSB1 030616Z 13006KT 25/07 A3011 RMK A01 T02470074  RH  033%=      5-min Rain = 0
KSB1 030617Z 14006KT 25/07 A3011 RMK A01 T02470074  RH  033%=      5-min Rain = 0
KSB1 030618Z 15006KT 25/07 A3011 RMK A01 T02470073  RH  033%=      5-min Rain = 0
KSB1 030619Z 15007KT 25/07 A3011 RMK A01 T02460073  RH  033%=      5-min Rain = 0
KSB1 030620Z 14007KT 25/08 A3011 RMK A01 T02460078  RH  034%=      5-min Rain = 0
KSB1 030621Z 13007KT 25/08 A3011 RMK A01 T02470080  RH  034%=      5-min Rain = 0
KSB1 030622Z 13008KT 25/08 A3011 RMK A01 T02480082  RH  035%=      5-min Rain = 0
KSB1 030623Z 14007KT 25/08 A3011 RMK A01 T02490084  RH  035%=      5-min Rain = 0
KSB1 030624Z 14009KT 25/09 A3011 RMK A01 T02490086  RH  035%=      5-min Rain = 0
KSB1 030625Z 13008KT 25/09 A3011 RMK A01 T02500087  RH  036%=      5-min Rain = 0
KSB1 030626Z 13008KT 25/09 A3011 RMK A01 T02510088  RH  036%=      5-min Rain = 0
KSB1 030627Z 14008KT 25/09 A3011 RMK A01 T02510090  RH  036%=      5-min Rain = 0
KSB1 030628Z 14007KT 25/09 A3011 RMK A01 T02510090  RH  036%=      5-min Rain = 0
KSB1 030629Z 14009KT 25/09 A3011 RMK A01 T02510092  RH  036%=      5-min Rain = 0
KSB1 030630Z 14008KT 25/09 A3011 RMK A01 T02510092  RH  037%=      5-min Rain = 0
KSB1 030631Z 14010KT 25/09 A3011 RMK A01 T02510093  RH  037%=      5-min Rain = 0
KSB1 030632Z 14009KT 25/09 A3011 RMK A01 T02490093  RH  037%=      5-min Rain = 0
KSB1 030633Z 15009KT 25/09 A3011 RMK A01 T02490093  RH  037%=      5-min Rain = 0
KSB1 030634Z 14009KT 25/09 A301 RMK A01 T02480093  RH  037%=      5-min Rain = 0
KSB1 030635Z 15009KT 25/09 A301 RMK A01 T02470093  RH  038%=      5-min Rain = 0
KSB1 030636Z 15008KT 25/09 A301 RMK A01 T02460093  RH  038%=      5-min Rain = 0
KSB1 030637Z 15008KT 25/09 A301 RMK A01 T02450093  RH  038%=      5-min Rain = 0
KSB1 030638Z 14008KT 25/09 A301 RMK A01 T02450093  RH  038%=      5-min Rain = 0
KSB1 030639Z 15009KT 24/09 A301 RMK A01 T02440093  RH  038%=      5-min Rain = 0
KSB1 030640Z 15008KT 24/09 A301 RMK A01 T02430094  RH  039%=      5-min Rain = 0
KSB1 030641Z 15007KT 24/09 A301 RMK A01 T02420093  RH  039%=      5-min Rain = 0
KSB1 030642Z 15007KT 24/09 A301 RMK A01 T02410093  RH  039%=      5-min Rain = 0
KSB1 030643Z 15007KT 24/09 A301 RMK A01 T02410093  RH  039%=      5-min Rain = 0
KSB1 030644Z 15008KT 24/09 A301 RMK A01 T02400094  RH  039%=      5-min Rain = 0
KSB1 030645Z 14007KT 24/10 A301 RMK A01 T02400095  RH  040%=      5-min Rain = 0
KSB1 030646Z 15007KT 24/10 A301 RMK A01 T02400096  RH  040%=      5-min Rain = 0
KSB1 030647Z 15006KT 24/10 A301 RMK A01 T02400095  RH  040%=      5-min Rain = 0
KSB1 030648Z 15006KT 24/10 A301 RMK A01 T02400095  RH  040%=      5-min Rain = 0
KSB1 030649Z 14006KT 24/10 A301 RMK A01 T02400096  RH  040%=      5-min Rain = 0
KSB1 030650Z 14006KT 24/10 A301 RMK A01 T02390096  RH  040%=      5-min Rain = 0
KSB1 030651Z 14006KT 24/10 A301 RMK A01 T02390096  RH  040%=      5-min Rain = 0
KSB1 030652Z 13004KT 24/10 A301 RMK A01 T02390096  RH  040%=      5-min Rain = 0
KSB1 030653Z 13005KT 24/10 A301 RMK A01 T02380095  RH  040%=      5-min Rain = 0
KSB1 030654Z 13005KT 24/10 A301 RMK A01 T02380096  RH  041%=      5-min Rain = 0
KSB1 030655Z 13005KT 24/10 A301 RMK A01 T02380097  RH  041%=      5-min Rain = 0
KSB1 030656Z 14005KT 24/10 A301 RMK A01 T02380097  RH  041%=      5-min Rain = 0
KSB1 030657Z 14004KT 24/10 A301 RMK A01 T02370097  RH  041%=      5-min Rain = 0
KSB1 030658Z 15004KT 24/10 A301 RMK A01 T02370097  RH  041%=      5-min Rain = 0
KSB1 030659Z 16004KT 24/10 A301 RMK A01 T02360097  RH  041%=      5-min Rain = 0
KSB1 030700Z 16003KT 24/10 A301 RMK A01 T02350097  RH  041%=      5-min Rain = 0
KSB1 030701Z 15003KT 24/10 A301 RMK A01 T02350096  RH  041%=      5-min Rain = 0
KSB1 030702Z 15003KT 23/10 A301 RMK A01 T02340097  RH  042%=      5-min Rain = 0
KSB1 030703Z 15003KT 23/10 A301 RMK A01 T02330098  RH  042%=      5-min Rain = 0
KSB1 030704Z 15004KT 23/10 A301 RMK A01 T02340099  RH  042%=      5-min Rain = 0
KSB1 030705Z 16003KT 24/10 A301 RMK A01 T02350099  RH  042%=      5-min Rain = 0
KSB1 030706Z 16003KT 24/10 A301 RMK A01 T02350098  RH  042%=      5-min Rain = 0
KSB1 030707Z 17003KT 23/10 A301 RMK A01 T02340098  RH  042%=      5-min Rain = 0
KSB1 030708Z 16003KT 23/10 A301 RMK A01 T02330098  RH  042%=      5-min Rain = 0
KSB1 030709Z 18002KT 23/10 A301 RMK A01 T02330099  RH  042%=      5-min Rain = 0
KSB1 030710Z 19003KT 23/10 A301 RMK A01 T02330099  RH  043%=      5-min Rain = 0
KSB1 030711Z 20002KT 23/10 A301 RMK A01 T02330099  RH  043%=      5-min Rain = 0
KSB1 030712Z 22002KT 23/10 A301 RMK A01 T02330099  RH  043%=      5-min Rain = 0
KSB1 030713Z 20002KT 23/10 A301 RMK A01 T02330099  RH  043%=      5-min Rain = 0
KSB1 030714Z 19002KT 23/10 A301 RMK A01 T02330100  RH  043%=      5-min Rain = 0
KSB1 030715Z 19002KT 23/10 A301 RMK A01 T02330100  RH  043%=      5-min Rain = 0
KSB1 030716Z 23002KT 23/10 A301 RMK A01 T02330101  RH  043%=      5-min Rain = 0
KSB1 030717Z 18002KT 23/10 A301 RMK A01 T02330101  RH  043%=      5-min Rain = 0
KSB1 030718Z 17003KT 23/10 A301 RMK A01 T02340102  RH  043%=      5-min Rain = 0
KSB1 030719Z 16002KT 24/10 A301 RMK A01 T02350102  RH  043%=      5-min Rain = 0
KSB1 030720Z 15003KT 24/10 A301 RMK A01 T02350101  RH  043%=      5-min Rain = 0
KSB1 030721Z 17005KT 23/10 A301 RMK A01 T02340102  RH  043%=      5-min Rain = 0
KSB1 030722Z 17006KT 24/10 A301 RMK A01 T02350103  RH  043%=      5-min Rain = 0
KSB1 030723Z 15004KT 24/10 A301 RMK A01 T02360104  RH  043%=      5-min Rain = 0
KSB1 030724Z 14005KT 24/10 A301 RMK A01 T02370103  RH  043%=      5-min Rain = 0
KSB1 030725Z 12005KT 24/10 A301 RMK A01 T02370103  RH  043%=      5-min Rain = 0
KSB1 030726Z 14006KT 24/10 A301 RMK A01 T02380103  RH  043%=      5-min Rain = 0
KSB1 030727Z 11007KT 24/10 A301 RMK A01 T02380103  RH  043%=      5-min Rain = 0
KSB1 030728Z 13005KT 24/10 A301 RMK A01 T02380103  RH  043%=      5-min Rain = 0
KSB1 030729Z 11005KT 24/10 A301 RMK A01 T02390103  RH  042%=      5-min Rain = 0
KSB1 030730Z 11004KT 24/10 A301 RMK A01 T02370102  RH  042%=      5-min Rain = 0
KSB1 030731Z 12005KT 24/10 A301 RMK A01 T02360102  RH  043%=      5-min Rain = 0
KSB1 030732Z 11005KT 24/10 A301 RMK A01 T02350102  RH  043%=      5-min Rain = 0
KSB1 030733Z 11004KT 23/10 A301 RMK A01 T02340101  RH  043%=      5-min Rain = 0
KSB1 030734Z 10003KT 23/10 A301 RMK A01 T02330101  RH  043%=      5-min Rain = 0
KSB1 030735Z 10003KT 23/10 A301 RMK A01 T02320101  RH  043%=      5-min Rain = 0
KSB1 030736Z 10002KT 23/10 A301 RMK A01 T02310101  RH  044%=      5-min Rain = 0
KSB1 030737Z 10003KT 23/10 A301 RMK A01 T02310101  RH  044%=      5-min Rain = 0
KSB1 030738Z 10003KT 23/10 A301 RMK A01 T02300101  RH  044%=      5-min Rain = 0
KSB1 030739Z 11004KT 23/10 A301 RMK A01 T02300100  RH  044%=      5-min Rain = 0
KSB1 030740Z 12004KT 23/10 A301 RMK A01 T02290100  RH  044%=      5-min Rain = 0
KSB1 030741Z 12004KT 23/10 A301 RMK A01 T02290100  RH  044%=      5-min Rain = 0
KSB1 030742Z 13004KT 23/10 A301 RMK A01 T02300100  RH  044%=      5-min Rain = 0
KSB1 030743Z 13004KT 23/10 A301 RMK A01 T02300099  RH  044%=      5-min Rain = 0
KSB1 030744Z 13003KT 23/10 A301 RMK A01 T02300099  RH  044%=      5-min Rain = 0
KSB1 030745Z 14004KT 23/10 A301 RMK A01 T02300099  RH  044%=      5-min Rain = 0
KSB1 030746Z 12004KT 23/10 A301 RMK A01 T02300100  RH  044%=      5-min Rain = 0
KSB1 030747Z 14003KT 23/10 A301 RMK A01 T02300099  RH  044%=      5-min Rain = 0
KSB1 030748Z 14004KT 23/10 A301 RMK A01 T02300099  RH  043%=      5-min Rain = 0
KSB1 030749Z 13004KT 23/10 A301 RMK A01 T02300100  RH  044%=      5-min Rain = 0
KSB1 030750Z 14004KT 23/10 A301 RMK A01 T02290100  RH  044%=      5-min Rain = 0
KSB1 030751Z 13004KT 23/10 A3009 RMK A01 T02290099  RH  044%=      5-min Rain = 0
KSB1 030752Z 14004KT 23/10 A3009 RMK A01 T02290099  RH  044%=      5-min Rain = 0
KSB1 030753Z 14004KT 23/10 A3009 RMK A01 T02280099  RH  044%=      5-min Rain = 0
KSB1 030754Z 14004KT 23/10 A3009 RMK A01 T02260099  RH  044%=      5-min Rain = 0
KSB1 030755Z 15004KT 23/10 A3009 RMK A01 T02250098  RH  044%=      5-min Rain = 0
KSB1 030756Z 15004KT 22/10 A3009 RMK A01 T02240097  RH  045%=      5-min Rain = 0
KSB1 030757Z 15004KT 22/10 A3009 RMK A01 T02220097  RH  045%=      5-min Rain = 0
KSB1 030758Z 16004KT 22/10 A3009 RMK A01 T02210097  RH  045%=      5-min Rain = 0
KSB1 030759Z 16004KT 22/10 A3009 RMK A01 T02200097  RH  046%=      5-min Rain = 0
KSB1 030800Z 16004KT 22/10 A3009 RMK A01 T02190097  RH  046%=      5-min Rain = 0
KSB1 030801Z 16004KT 22/10 A3009 RMK A01 T02180098  RH  046%=      5-min Rain = 0
KSB1 030802Z 17003KT 22/10 A3009 RMK A01 T02180098  RH  046%=      5-min Rain = 0
KSB1 030803Z 18002KT 22/10 A3009 RMK A01 T02180098  RH  046%=      5-min Rain = 0
KSB1 030804Z 19002KT 22/10 A3009 RMK A01 T02180099  RH  046%=      5-min Rain = 0
KSB1 030805Z 18002KT 22/10 A3009 RMK A01 T02180099  RH  047%=      5-min Rain = 0
KSB1 030806Z 17002KT 22/10 A3009 RMK A01 T02180100  RH  047%=      5-min Rain = 0
KSB1 030807Z 18002KT 22/10 A3009 RMK A01 T02180099  RH  047%=      5-min Rain = 0
KSB1 030808Z 18001KT 22/10 A3009 RMK A01 T02180099  RH  047%=      5-min Rain = 0
KSB1 030809Z 18002KT 22/10 A3009 RMK A01 T02180100  RH  047%=      5-min Rain = 0
KSB1 030810Z 17001KT 22/10 A3009 RMK A01 T02180099  RH  047%=      5-min Rain = 0
KSB1 030811Z 16003KT 22/10 A3009 RMK A01 T02180100  RH  047%=      5-min Rain = 0
KSB1 030812Z 16003KT 22/10 A3009 RMK A01 T02180101  RH  047%=      5-min Rain = 0
KSB1 030813Z 15003KT 22/10 A3009 RMK A01 T02180102  RH  047%=      5-min Rain = 0
KSB1 030814Z 15003KT 22/10 A3009 RMK A01 T02190102  RH  047%=      5-min Rain = 0
KSB1 030815Z 15004KT 22/10 A3009 RMK A01 T02190101  RH  047%=      5-min Rain = 0
KSB1 030816Z 14004KT 22/10 A3009 RMK A01 T02190101  RH  047%=      5-min Rain = 0
KSB1 030817Z 14005KT 22/10 A3009 RMK A01 T02180102  RH  047%=      5-min Rain = 0
KSB1 030818Z 14005KT 22/10 A3009 RMK A01 T02180103  RH  048%=      5-min Rain = 0
KSB1 030819Z 15004KT 22/10 A3009 RMK A01 T02180103  RH  048%=      5-min Rain = 0
KSB1 030820Z 14004KT 22/10 A3009 RMK A01 T02180103  RH  048%=      5-min Rain = 0
KSB1 030821Z 13004KT 22/10 A3009 RMK A01 T02180102  RH  048%=      5-min Rain = 0
KSB1 030822Z 14005KT 22/10 A3009 RMK A01 T02180103  RH  048%=      5-min Rain = 0
KSB1 030823Z 14004KT 22/10 A3009 RMK A01 T02180103  RH  048%=      5-min Rain = 0
KSB1 030824Z 14004KT 22/10 A3009 RMK A01 T02180103  RH  048%=      5-min Rain = 0
KSB1 030825Z 14005KT 22/10 A3009 RMK A01 T02170103  RH  048%=      5-min Rain = 0
KSB1 030826Z 14005KT 22/10 A3009 RMK A01 T02170102  RH  048%=      5-min Rain = 0
KSB1 030827Z 14005KT 22/10 A3009 RMK A01 T02150101  RH  048%=      5-min Rain = 0
KSB1 030828Z 14005KT 22/10 A3009 RMK A01 T02150102  RH  049%=      5-min Rain = 0
KSB1 030829Z 14005KT 21/10 A3009 RMK A01 T02140102  RH  049%=      5-min Rain = 0
KSB1 030830Z 15004KT 21/10 A3009 RMK A01 T02130104  RH  050%=      5-min Rain = 0
KSB1 030831Z 16004KT 21/10 A3009 RMK A01 T02140103  RH  049%=      5-min Rain = 0
KSB1 030832Z 16005KT 21/10 A3009 RMK A01 T02140103  RH  049%=      5-min Rain = 0
KSB1 030833Z 16005KT 21/10 A3009 RMK A01 T02140104  RH  050%=      5-min Rain = 0
KSB1 030834Z 15005KT 21/10 A3009 RMK A01 T02130104  RH  050%=      5-min Rain = 0
KSB1 030835Z 16005KT 21/10 A3009 RMK A01 T02130103  RH  050%=      5-min Rain = 0
KSB1 030836Z 15005KT 21/10 A3009 RMK A01 T02120103  RH  050%=      5-min Rain = 0
KSB1 030837Z 15005KT 21/10 A3009 RMK A01 T02100102  RH  050%=      5-min Rain = 0
KSB1 030838Z 15005KT 21/10 A3009 RMK A01 T02100103  RH  050%=      5-min Rain = 0
KSB1 030839Z 15004KT 21/10 A3009 RMK A01 T02090103  RH  051%=      5-min Rain = 0
KSB1 030840Z 15005KT 21/10 A3009 RMK A01 T02090104  RH  051%=      5-min Rain = 0
KSB1 030841Z 15004KT 21/11 A3009 RMK A01 T02090105  RH  051%=      5-min Rain = 0
KSB1 030842Z 16004KT 21/11 A3008 RMK A01 T02090106  RH  052%=      5-min Rain = 0
KSB1 030843Z 16004KT 21/11 A3008 RMK A01 T02100107  RH  052%=      5-min Rain = 0
KSB1 030844Z 16003KT 21/11 A3008 RMK A01 T02100105  RH  051%=      5-min Rain = 0
KSB1 030845Z 17003KT 21/11 A3008 RMK A01 T02100106  RH  051%=      5-min Rain = 0
KSB1 030846Z 18003KT 21/11 A3008 RMK A01 T02100106  RH  051%=      5-min Rain = 0
KSB1 030847Z 19002KT 21/11 A3008 RMK A01 T02100106  RH  051%=      5-min Rain = 0
KSB1 030848Z 21002KT 21/11 A3008 RMK A01 T02100107  RH  052%=      5-min Rain = 0
KSB1 030849Z 21002KT 21/11 A3008 RMK A01 T02110108  RH  052%=      5-min Rain = 0
KSB1 030850Z 20003KT 21/11 A3008 RMK A01 T02120108  RH  052%=      5-min Rain = 0
KSB1 030851Z 20003KT 21/11 A3008 RMK A01 T02120109  RH  052%=      5-min Rain = 0
KSB1 030852Z 20002KT 21/11 A3008 RMK A01 T02130109  RH  051%=      5-min Rain = 0
KSB1 030853Z 20003KT 21/11 A3008 RMK A01 T02130108  RH  051%=      5-min Rain = 0
KSB1 030854Z 17003KT 21/11 A3008 RMK A01 T02120111  RH  052%=      5-min Rain = 0
KSB1 030855Z 20002KT 21/11 A3008 RMK A01 T02130111  RH  052%=      5-min Rain = 0
KSB1 030856Z 20003KT 21/11 A3008 RMK A01 T02130110  RH  052%=      5-min Rain = 0
KSB1 030857Z 22003KT 21/11 A3008 RMK A01 T02130110  RH  052%=      5-min Rain = 0
KSB1 030858Z 20003KT 21/11 A3008 RMK A01 T02120109  RH  052%=      5-min Rain = 0
KSB1 030859Z 21003KT 21/11 A3008 RMK A01 T02110109  RH  052%=      5-min Rain = 0
KSB1 030900Z 21003KT 21/11 A3008 RMK A01 T02110110  RH  052%=      5-min Rain = 0
KSB1 030901Z 22002KT 21/11 A3008 RMK A01 T02110110  RH  052%=      5-min Rain = 0
KSB1 030902Z 22002KT 21/11 A3008 RMK A01 T02100109  RH  052%=      5-min Rain = 0
KSB1 030903Z 21002KT 21/11 A3008 RMK A01 T02100110  RH  053%=      5-min Rain = 0
KSB1 030904Z 21002KT 21/11 A3008 RMK A01 T02100111  RH  053%=      5-min Rain = 0
KSB1 030905Z 20002KT 21/11 A3008 RMK A01 T02100110  RH  053%=      5-min Rain = 0
KSB1 030906Z 20003KT 21/11 A3008 RMK A01 T02100111  RH  053%=      5-min Rain = 0
KSB1 030907Z 20003KT 21/11 A3008 RMK A01 T02100112  RH  054%=      5-min Rain = 0
KSB1 030908Z 20003KT 21/11 A3008 RMK A01 T02100112  RH  053%=      5-min Rain = 0
KSB1 030909Z 20004KT 21/11 A3008 RMK A01 T02100111  RH  053%=      5-min Rain = 0
KSB1 030910Z 21004KT 21/11 A3008 RMK A01 T02090110  RH  053%=      5-min Rain = 0
KSB1 030911Z 21004KT 21/11 A3008 RMK A01 T02080110  RH  054%=      5-min Rain = 0
KSB1 030912Z 21004KT 21/11 A3008 RMK A01 T02070110  RH  054%=      5-min Rain = 0
KSB1 030913Z 21004KT 21/11 A3008 RMK A01 T02070112  RH  054%=      5-min Rain = 0
KSB1 030914Z 20004KT 21/11 A3008 RMK A01 T02070111  RH  054%=      5-min Rain = 0
KSB1 030915Z 21004KT 21/11 A3008 RMK A01 T02060112  RH  055%=      5-min Rain = 0
KSB1 030916Z 21003KT 21/11 A3008 RMK A01 T02060112  RH  055%=      5-min Rain = 0
KSB1 030917Z 21004KT 21/11 A3008 RMK A01 T02060111  RH  055%=      5-min Rain = 0
KSB1 030918Z 22004KT 21/11 A3008 RMK A01 T02050111  RH  055%=      5-min Rain = 0
KSB1 030919Z 22004KT 20/11 A3008 RMK A01 T02040111  RH  055%=      5-min Rain = 0
KSB1 030920Z 22004KT 20/11 A3008 RMK A01 T02040111  RH  055%=      5-min Rain = 0
KSB1 030921Z 22004KT 20/11 A3008 RMK A01 T02030112  RH  056%=      5-min Rain = 0
KSB1 030922Z 21004KT 20/11 A3008 RMK A01 T02030112  RH  056%=      5-min Rain = 0
KSB1 030923Z 21004KT 20/11 A3008 RMK A01 T02030112  RH  056%=      5-min Rain = 0
KSB1 030924Z 21004KT 20/11 A3008 RMK A01 T02030112  RH  056%=      5-min Rain = 0
KSB1 030925Z 21004KT 20/11 A3008 RMK A01 T02030113  RH  056%=      5-min Rain = 0
KSB1 030926Z 19004KT 20/11 A3008 RMK A01 T02030114  RH  056%=      5-min Rain = 0
KSB1 030927Z 20003KT 20/11 A3008 RMK A01 T02030114  RH  056%=      5-min Rain = 0
KSB1 030928Z 19004KT 20/11 A3008 RMK A01 T02040114  RH  056%=      5-min Rain = 0
KSB1 030929Z 20003KT 20/11 A3008 RMK A01 T02040114  RH  056%=      5-min Rain = 0
KSB1 030930Z 19003KT 20/11 A3008 RMK A01 T02040114  RH  056%=      5-min Rain = 0
KSB1 030931Z 20003KT 20/11 A3008 RMK A01 T02030114  RH  057%=      5-min Rain = 0
KSB1 030932Z 19003KT 20/12 A3008 RMK A01 T02040115  RH  057%=      5-min Rain = 0
KSB1 030933Z 20003KT 20/12 A3008 RMK A01 T02030116  RH  057%=      5-min Rain = 0
KSB1 030934Z 18004KT 20/12 A3008 RMK A01 T02040117  RH  057%=      5-min Rain = 0
KSB1 030935Z 18003KT 21/12 A3008 RMK A01 T02060118  RH  057%=      5-min Rain = 0
KSB1 030936Z 17003KT 21/12 A3008 RMK A01 T02070118  RH  057%=      5-min Rain = 0
KSB1 030937Z 17004KT 21/12 A3008 RMK A01 T02070119  RH  057%=      5-min Rain = 0
KSB1 030938Z 18003KT 21/12 A3008 RMK A01 T02080119  RH  057%=      5-min Rain = 0
KSB1 030939Z 18003KT 21/12 A3008 RMK A01 T02090119  RH  057%=      5-min Rain = 0
KSB1 030940Z 17003KT 21/12 A3008 RMK A01 T02090119  RH  056%=      5-min Rain = 0
KSB1 030941Z 17003KT 21/12 A3008 RMK A01 T02090119  RH  056%=      5-min Rain = 0
KSB1 030942Z 17004KT 21/12 A3008 RMK A01 T02090120  RH  056%=      5-min Rain = 0
KSB1 030943Z 17003KT 21/12 A3008 RMK A01 T02090120  RH  057%=      5-min Rain = 0
KSB1 030944Z 16003KT 21/12 A3008 RMK A01 T02100120  RH  056%=      5-min Rain = 0
KSB1 030945Z 16003KT 21/12 A3008 RMK A01 T02100120  RH  056%=      5-min Rain = 0
KSB1 030946Z 16003KT 21/12 A3009 RMK A01 T02090119  RH  056%=      5-min Rain = 0
KSB1 030947Z 15004KT 21/12 A3009 RMK A01 T02090119  RH  056%=      5-min Rain = 0
KSB1 030948Z 15004KT 21/12 A3009 RMK A01 T02090120  RH  057%=      5-min Rain = 0
KSB1 030949Z 15004KT 21/12 A3009 RMK A01 T02090121  RH  057%=      5-min Rain = 0
KSB1 030950Z 15004KT 21/12 A3009 RMK A01 T02090121  RH  057%=      5-min Rain = 0
KSB1 030951Z 14004KT 21/12 A3009 RMK A01 T02090121  RH  057%=      5-min Rain = 0
KSB1 030952Z 14004KT 21/12 A3009 RMK A01 T02090121  RH  057%=      5-min Rain = 0
KSB1 030953Z 15003KT 21/12 A3009 RMK A01 T02090121  RH  057%=      5-min Rain = 0
KSB1 030954Z 14003KT 21/12 A3009 RMK A01 T02090121  RH  057%=      5-min Rain = 0
KSB1 030955Z 14003KT 21/12 A3009 RMK A01 T02090121  RH  057%=      5-min Rain = 0
KSB1 030956Z 12002KT 21/12 A3009 RMK A01 T02090121  RH  057%=      5-min Rain = 0
KSB1 030957Z 01001KT 21/12 A301 RMK A01 T02090121  RH  057%=      5-min Rain = 0
KSB1 030958Z 36002KT 21/12 A301 RMK A01 T02080119  RH  057%=      5-min Rain = 0
KSB1 030959Z 36003KT 21/12 A301 RMK A01 T02070120  RH  057%=      5-min Rain = 0
KSB1 031000Z 36004KT 21/12 A301 RMK A01 T02060119  RH  058%=      5-min Rain = 0
KSB1 031001Z 35007KT 21/12 A301 RMK A01 T02050118  RH  057%=      5-min Rain = 0
KSB1 031002Z 35008KT 20/11 A301 RMK A01 T02040113  RH  056%=      5-min Rain = 0
KSB1 031003Z 35008KT 20/11 A301 RMK A01 T02020109  RH  055%=      5-min Rain = 0
KSB1 031004Z 34008KT 20/11 A301 RMK A01 T02010107  RH  055%=      5-min Rain = 0
KSB1 031005Z 34008KT 20/11 A301 RMK A01 T02000106  RH  055%=      5-min Rain = 0
KSB1 031006Z 33007KT 20/11 A301 RMK A01 T02000106  RH  054%=      5-min Rain = 0
KSB1 031007Z 32005KT 20/11 A301 RMK A01 T02000106  RH  055%=      5-min Rain = 0
KSB1 031008Z 31004KT 20/11 A301 RMK A01 T02010107  RH  055%=      5-min Rain = 0
KSB1 031009Z 31004KT 20/11 A301 RMK A01 T02010106  RH  054%=      5-min Rain = 0
KSB1 031010Z 31003KT 20/11 A301 RMK A01 T02010107  RH  055%=      5-min Rain = 0
KSB1 031011Z 31004KT 20/11 A301 RMK A01 T02020108  RH  055%=      5-min Rain = 0
KSB1 031012Z 33003KT 20/11 A301 RMK A01 T02020109  RH  055%=      5-min Rain = 0
KSB1 031013Z 34005KT 20/11 A301 RMK A01 T02040112  RH  056%=      5-min Rain = 0
KSB1 031014Z 35006KT 21/11 A301 RMK A01 T02050113  RH  055%=      5-min Rain = 0
KSB1 031015Z 35006KT 21/11 A301 RMK A01 T02060112  RH  055%=      5-min Rain = 0
KSB1 031016Z 36006KT 21/11 A301 RMK A01 T02060111  RH  054%=      5-min Rain = 0
KSB1 031017Z 35005KT 21/11 A301 RMK A01 T02050110  RH  054%=      5-min Rain = 0
KSB1 031018Z 34004KT 20/11 A301 RMK A01 T02040111  RH  055%=      5-min Rain = 0
KSB1 031019Z 33003KT 20/11 A301 RMK A01 T02040111  RH  055%=      5-min Rain = 0
KSB1 031020Z 30002KT 20/11 A301 RMK A01 T02040112  RH  056%=      5-min Rain = 0
KSB1 031021Z 29003KT 21/11 A301 RMK A01 T02050113  RH  055%=      5-min Rain = 0
KSB1 031022Z 31002KT 21/11 A301 RMK A01 T02050112  RH  055%=      5-min Rain = 0
KSB1 031023Z 33004KT 21/11 A301 RMK A01 T02050113  RH  055%=      5-min Rain = 0
KSB1 031024Z 35005KT 21/11 A301 RMK A01 T02050114  RH  056%=      5-min Rain = 0
KSB1 031025Z 35005KT 21/12 A301 RMK A01 T02060115  RH  056%=      5-min Rain = 0
KSB1 031026Z 35005KT 21/12 A301 RMK A01 T02070115  RH  056%=      5-min Rain = 0
KSB1 031027Z 35004KT 21/11 A301 RMK A01 T02070114  RH  055%=      5-min Rain = 0
KSB1 031028Z 00003KT 21/11 A301 RMK A01 T02070114  RH  055%=      5-min Rain = 0
KSB1 031029Z 00002KT 21/11 A301 RMK A01 T02070114  RH  055%=      5-min Rain = 0
KSB1 031030Z 00001KT 21/11 A301 RMK A01 T02070114  RH  055%=      5-min Rain = 0
KSB1 031031Z 36001KT 21/11 A301 RMK A01 T02070114  RH  055%=      5-min Rain = 0
KSB1 031032Z 01002KT 21/11 A301 RMK A01 T02070114  RH  055%=      5-min Rain = 0
KSB1 031033Z 01002KT 21/12 A301 RMK A01 T02060115  RH  056%=      5-min Rain = 0
KSB1 031034Z 01002KT 21/12 A301 RMK A01 T02060115  RH  056%=      5-min Rain = 0
KSB1 031035Z 01003KT 21/11 A301 RMK A01 T02060114  RH  056%=      5-min Rain = 0
KSB1 031036Z 01003KT 21/12 A301 RMK A01 T02080115  RH  055%=      5-min Rain = 0
KSB1 031037Z 01003KT 21/11 A301 RMK A01 T02080114  RH  055%=      5-min Rain = 0
KSB1 031038Z 01004KT 21/11 A301 RMK A01 T02090114  RH  055%=      5-min Rain = 0
KSB1 031039Z 02004KT 21/11 A301 RMK A01 T02090114  RH  055%=      5-min Rain = 0
KSB1 031040Z 02004KT 21/11 A301 RMK A01 T02090114  RH  055%=      5-min Rain = 0
KSB1 031041Z 02004KT 21/11 A301 RMK A01 T02100114  RH  054%=      5-min Rain = 0
KSB1 031042Z 02005KT 21/11 A301 RMK A01 T02100114  RH  054%=      5-min Rain = 0
KSB1 031043Z 02005KT 21/11 A301 RMK A01 T02100114  RH  054%=      5-min Rain = 0
KSB1 031044Z 03006KT 21/11 A301 RMK A01 T02090114  RH  054%=      5-min Rain = 0
KSB1 031045Z 03006KT 21/11 A301 RMK A01 T02080113  RH  054%=      5-min Rain = 0
KSB1 031046Z 03005KT 21/11 A301 RMK A01 T02070113  RH  055%=      5-min Rain = 0
KSB1 031047Z 03004KT 21/11 A301 RMK A01 T02070112  RH  055%=      5-min Rain = 0
KSB1 031048Z 04003KT 21/11 A301 RMK A01 T02060112  RH  055%=      5-min Rain = 0
KSB1 031049Z 04002KT 21/11 A301 RMK A01 T02050112  RH  055%=      5-min Rain = 0
KSB1 031050Z 04002KT 21/11 A301 RMK A01 T02050112  RH  055%=      5-min Rain = 0
KSB1 031051Z 05002KT 20/11 A301 RMK A01 T02040111  RH  055%=      5-min Rain = 0
KSB1 031052Z 05002KT 20/11 A301 RMK A01 T02040111  RH  055%=      5-min Rain = 0
KSB1 031053Z 06002KT 20/11 A301 RMK A01 T02030111  RH  055%=      5-min Rain = 0
KSB1 031054Z 05002KT 20/11 A301 RMK A01 T02020110  RH  055%=      5-min Rain = 0
KSB1 031055Z 04002KT 20/11 A301 RMK A01 T02020109  RH  055%=      5-min Rain = 0
KSB1 031056Z 04002KT 20/11 A301 RMK A01 T02010109  RH  055%=      5-min Rain = 0
KSB1 031057Z 04003KT 20/11 A301 RMK A01 T02010110  RH  056%=      5-min Rain = 0
KSB1 031058Z 03002KT 20/11 A301 RMK A01 T02000110  RH  056%=      5-min Rain = 0
KSB1 031059Z 02001KT 20/11 A3011 RMK A01 T01990109  RH  056%=      5-min Rain = 0
KSB1 031100Z 00001KT 20/11 A3011 RMK A01 T01980108  RH  056%=      5-min Rain = 0
KSB1 031101Z 00000KT 20/11 A3011 RMK A01 T01970108  RH  056%=      5-min Rain = 0
KSB1 031102Z 00000KT 20/11 A3011 RMK A01 T01950107  RH  057%=      5-min Rain = 0
KSB1 031103Z 00000KT 19/11 A3011 RMK A01 T01930105  RH  057%=      5-min Rain = 0
KSB1 031104Z 22000KT 19/10 A3011 RMK A01 T01920104  RH  057%=      5-min Rain = 0
KSB1 031105Z 22001KT 19/10 A3011 RMK A01 T01900104  RH  057%=      5-min Rain = 0
KSB1 031106Z 22001KT 19/11 A3011 RMK A01 T01880105  RH  058%=      5-min Rain = 0
KSB1 031107Z 21001KT 19/11 A3011 RMK A01 T01880106  RH  059%=      5-min Rain = 0
KSB1 031108Z 21001KT 19/11 A3011 RMK A01 T01880107  RH  059%=      5-min Rain = 0
KSB1 031109Z 19001KT 19/11 A3011 RMK A01 T01890107  RH  059%=      5-min Rain = 0
KSB1 031110Z 18001KT 19/11 A3011 RMK A01 T01890107  RH  059%=      5-min Rain = 0
KSB1 031111Z 21001KT 19/11 A3011 RMK A01 T01900108  RH  059%=      5-min Rain = 0
KSB1 031112Z 22001KT 19/11 A3011 RMK A01 T01910108  RH  059%=      5-min Rain = 0
KSB1 031113Z 22001KT 19/11 A3011 RMK A01 T01920109  RH  059%=      5-min Rain = 0
KSB1 031114Z 22002KT 19/11 A3011 RMK A01 T01930110  RH  059%=      5-min Rain = 0
KSB1 031115Z 22002KT 19/11 A3011 RMK A01 T01940110  RH  058%=      5-min Rain = 0
KSB1 031116Z 22001KT 19/11 A3011 RMK A01 T01940109  RH  058%=      5-min Rain = 0
KSB1 031117Z 20001KT 19/11 A3011 RMK A01 T01940109  RH  058%=      5-min Rain = 0
KSB1 031118Z 20001KT 19/11 A3011 RMK A01 T01940109  RH  058%=      5-min Rain = 0
KSB1 031119Z 20001KT 19/11 A301 RMK A01 T01940110  RH  058%=      5-min Rain = 0
KSB1 031120Z 17002KT 20/11 A3011 RMK A01 T01950111  RH  058%=      5-min Rain = 0
KSB1 031121Z 17002KT 20/11 A3011 RMK A01 T01950112  RH  058%=      5-min Rain = 0
KSB1 031122Z 18000KT 20/11 A301 RMK A01 T01960111  RH  058%=      5-min Rain = 0
KSB1 031123Z 18000KT 20/11 A3011 RMK A01 T01960111  RH  058%=      5-min Rain = 0
KSB1 031124Z 18000KT 20/11 A3011 RMK A01 T01960112  RH  058%=      5-min Rain = 0
KSB1 031125Z 17000KT 20/11 A3011 RMK A01 T01960112  RH  059%=      5-min Rain = 0
KSB1 031126Z 16002KT 20/11 A3011 RMK A01 T01960112  RH  058%=      5-min Rain = 0
KSB1 031127Z 15001KT 20/11 A3011 RMK A01 T01970113  RH  058%=      5-min Rain = 0
KSB1 031128Z 10001KT 20/11 A3011 RMK A01 T01970112  RH  058%=      5-min Rain = 0
KSB1 031129Z 12002KT 20/11 A3011 RMK A01 T01970113  RH  058%=      5-min Rain = 0
KSB1 031130Z 12003KT 20/12 A3011 RMK A01 T01970116  RH  059%=      5-min Rain = 0
KSB1 031131Z 11002KT 20/12 A3011 RMK A01 T02000119  RH  060%=      5-min Rain = 0
KSB1 031132Z 10002KT 20/12 A3011 RMK A01 T02010118  RH  059%=      5-min Rain = 0
KSB1 031133Z 10002KT 20/12 A3011 RMK A01 T02020117  RH  058%=      5-min Rain = 0
KSB1 031134Z 12003KT 20/12 A3011 RMK A01 T02020116  RH  057%=      5-min Rain = 0
KSB1 031135Z 11002KT 20/12 A3011 RMK A01 T02020116  RH  057%=      5-min Rain = 0
KSB1 031136Z 12005KT 20/12 A3011 RMK A01 T02020118  RH  058%=      5-min Rain = 0
KSB1 031137Z 12004KT 20/12 A3011 RMK A01 T02030123  RH  060%=      5-min Rain = 0
KSB1 031138Z 11003KT 21/12 A3011 RMK A01 T02050121  RH  059%=      5-min Rain = 0
KSB1 031139Z 10003KT 21/12 A3011 RMK A01 T02050119  RH  058%=      5-min Rain = 0
KSB1 031140Z 09003KT 21/12 A3011 RMK A01 T02050118  RH  058%=      5-min Rain = 0
KSB1 031141Z 09003KT 20/12 A3011 RMK A01 T02030117  RH  058%=      5-min Rain = 0
KSB1 031142Z 08003KT 20/12 A3011 RMK A01 T02030119  RH  059%=      5-min Rain = 0
KSB1 031143Z 09003KT 20/12 A3011 RMK A01 T02030119  RH  058%=      5-min Rain = 0
KSB1 031144Z 08003KT 20/12 A3011 RMK A01 T02030119  RH  058%=      5-min Rain = 0
KSB1 031145Z 08003KT 20/12 A3011 RMK A01 T02030119  RH  058%=      5-min Rain = 0
KSB1 031146Z 08003KT 20/12 A3011 RMK A01 T02020118  RH  059%=      5-min Rain = 0
KSB1 031147Z 08004KT 20/12 A3011 RMK A01 T02010118  RH  059%=      5-min Rain = 0
KSB1 031148Z 09004KT 20/12 A3011 RMK A01 T02010120  RH  059%=      5-min Rain = 0
KSB1 031149Z 09003KT 20/12 A3011 RMK A01 T02010121  RH  060%=      5-min Rain = 0
KSB1 031150Z 09003KT 20/12 A3011 RMK A01 T02010121  RH  060%=      5-min Rain = 0
KSB1 031151Z 10003KT 20/12 A3011 RMK A01 T02010120  RH  060%=      5-min Rain = 0
KSB1 031152Z 11003KT 20/12 A3011 RMK A01 T02000121  RH  060%=      5-min Rain = 0
KSB1 031153Z 11003KT 20/12 A3011 RMK A01 T02000121  RH  060%=      5-min Rain = 0
KSB1 031154Z 12003KT 20/12 A3011 RMK A01 T02000121  RH  060%=      5-min Rain = 0
KSB1 031155Z 12002KT 20/12 A3011 RMK A01 T02000122  RH  061%=      5-min Rain = 0
KSB1 031156Z 13002KT 20/12 A3011 RMK A01 T02000122  RH  061%=      5-min Rain = 0
KSB1 031157Z 13003KT 20/12 A3011 RMK A01 T02000121  RH  061%=      5-min Rain = 0
KSB1 031158Z 13003KT 20/12 A3011 RMK A01 T01990121  RH  061%=      5-min Rain = 0
KSB1 031159Z 13003KT 20/12 A3011 RMK A01 T01980121  RH  061%=      5-min Rain = 0
KSB1 031200Z 13003KT 20/12 A3011 RMK A01 T01980122  RH  061%=      5-min Rain = 0
KSB1 031201Z 13003KT 20/12 A3011 RMK A01 T01980123  RH  062%=      5-min Rain = 0
KSB1 031202Z 13003KT 20/12 A3011 RMK A01 T01970122  RH  062%=      5-min Rain = 0
KSB1 031203Z 14003KT 20/12 A3011 RMK A01 T01970123  RH  062%=      5-min Rain = 0
KSB1 031204Z 14003KT 20/12 A3011 RMK A01 T01970123  RH  062%=      5-min Rain = 0
KSB1 031205Z 14003KT 20/12 A3011 RMK A01 T01970123  RH  063%=      5-min Rain = 0
KSB1 031206Z 14003KT 20/12 A3011 RMK A01 T01970124  RH  063%=      5-min Rain = 0
KSB1 031207Z 14003KT 20/13 A3011 RMK A01 T01970126  RH  063%=      5-min Rain = 0
KSB1 031208Z 14003KT 20/13 A3011 RMK A01 T01970126  RH  063%=      5-min Rain = 0
KSB1 031209Z 15003KT 20/13 A3012 RMK A01 T01970126  RH  063%=      5-min Rain = 0
KSB1 031210Z 15004KT 20/13 A3012 RMK A01 T01970129  RH  065%=      5-min Rain = 0
KSB1 031211Z 15003KT 20/13 A3012 RMK A01 T01980129  RH  065%=      5-min Rain = 0
KSB1 031212Z 15003KT 20/13 A3012 RMK A01 T01980128  RH  064%=      5-min Rain = 0
KSB1 031213Z 15003KT 20/13 A3012 RMK A01 T01980127  RH  064%=      5-min Rain = 0
KSB1 031214Z 16003KT 20/13 A3012 RMK A01 T01970127  RH  064%=      5-min Rain = 0
KSB1 031215Z 16003KT 20/13 A3012 RMK A01 T01970126  RH  064%=      5-min Rain = 0
KSB1 031216Z 16002KT 20/13 A3012 RMK A01 T01970126  RH  064%=      5-min Rain = 0
KSB1 031217Z 14002KT 20/13 A3012 RMK A01 T01970126  RH  064%=      5-min Rain = 0
KSB1 031218Z 13002KT 20/13 A3012 RMK A01 T01970127  RH  064%=      5-min Rain = 0
KSB1 031219Z 13002KT 20/13 A3012 RMK A01 T01970127  RH  064%=      5-min Rain = 0
KSB1 031220Z 12003KT 20/13 A3012 RMK A01 T01980129  RH  065%=      5-min Rain = 0
KSB1 031221Z 11003KT 20/13 A3012 RMK A01 T01990130  RH  064%=      5-min Rain = 0
KSB1 031222Z 12003KT 20/13 A3012 RMK A01 T01990130  RH  064%=      5-min Rain = 0
KSB1 031223Z 13003KT 20/13 A3012 RMK A01 T01990130  RH  064%=      5-min Rain = 0
KSB1 031224Z 13002KT 20/13 A3012 RMK A01 T01990130  RH  064%=      5-min Rain = 0
KSB1 031225Z 13002KT 20/13 A3012 RMK A01 T02000130  RH  064%=      5-min Rain = 0
KSB1 031226Z 14003KT 20/13 A3012 RMK A01 T02000130  RH  064%=      5-min Rain = 0
KSB1 031227Z 15002KT 20/13 A3012 RMK A01 T02000131  RH  064%=      5-min Rain = 0
KSB1 031228Z 16002KT 20/13 A3012 RMK A01 T02000130  RH  064%=      5-min Rain = 0
KSB1 031229Z 17003KT 20/13 A3012 RMK A01 T01990129  RH  064%=      5-min Rain = 0
KSB1 031230Z 17003KT 20/13 A3012 RMK A01 T01980129  RH  064%=      5-min Rain = 0
KSB1 031231Z 17003KT 20/13 A3012 RMK A01 T01970129  RH  064%=      5-min Rain = 0
KSB1 031232Z 17003KT 20/13 A3012 RMK A01 T01960128  RH  065%=      5-min Rain = 0
KSB1 031233Z 16003KT 20/13 A3012 RMK A01 T01960128  RH  065%=      5-min Rain = 0
KSB1 031234Z 16004KT 20/13 A3012 RMK A01 T01960129  RH  065%=      5-min Rain = 0
KSB1 031235Z 16004KT 20/13 A3012 RMK A01 T01960132  RH  066%=      5-min Rain = 0
KSB1 031236Z 16005KT 20/13 A3012 RMK A01 T01970133  RH  066%=      5-min Rain = 0
KSB1 031237Z 16005KT 20/13 A3012 RMK A01 T01980132  RH  066%=      5-min Rain = 0
KSB1 031238Z 17005KT 20/13 A3012 RMK A01 T01980131  RH  065%=      5-min Rain = 0
KSB1 031239Z 16004KT 20/13 A3012 RMK A01 T01980131  RH  065%=      5-min Rain = 0
KSB1 031240Z 17005KT 20/13 A3012 RMK A01 T01980131  RH  065%=      5-min Rain = 0
KSB1 031241Z 16004KT 20/13 A3012 RMK A01 T01980130  RH  065%=      5-min Rain = 0
KSB1 031242Z 16004KT 20/13 A3012 RMK A01 T01980130  RH  065%=      5-min Rain = 0
KSB1 031243Z 16004KT 20/13 A3012 RMK A01 T01980131  RH  065%=      5-min Rain = 0
KSB1 031244Z 16004KT 20/13 A3012 RMK A01 T01980131  RH  065%=      5-min Rain = 0
KSB1 031245Z 16005KT 20/13 A3012 RMK A01 T01990132  RH  066%=      5-min Rain = 0
KSB1 031246Z 16005KT 20/13 A3012 RMK A01 T02000133  RH  066%=      5-min Rain = 0
KSB1 031247Z 16004KT 20/13 A3012 RMK A01 T02000134  RH  065%=      5-min Rain = 0
KSB1 031248Z 16004KT 20/13 A3012 RMK A01 T02010134  RH  065%=      5-min Rain = 0
KSB1 031249Z 16004KT 20/13 A3012 RMK A01 T02020134  RH  065%=      5-min Rain = 0
KSB1 031250Z 14004KT 20/14 A3012 RMK A01 T02020135  RH  065%=      5-min Rain = 0
KSB1 031251Z 14004KT 20/14 A3012 RMK A01 T02030136  RH  065%=      5-min Rain = 0
KSB1 031252Z 14005KT 20/14 A3012 RMK A01 T02040136  RH  065%=      5-min Rain = 0
KSB1 031253Z 14004KT 21/14 A3012 RMK A01 T02050136  RH  064%=      5-min Rain = 0
KSB1 031254Z 13004KT 21/14 A3012 RMK A01 T02060136  RH  064%=      5-min Rain = 0
KSB1 031255Z 13004KT 21/14 A3012 RMK A01 T02060136  RH  064%=      5-min Rain = 0
KSB1 031256Z 13004KT 21/14 A3012 RMK A01 T02070137  RH  064%=      5-min Rain = 0
KSB1 031257Z 14004KT 21/14 A3012 RMK A01 T02070137  RH  064%=      5-min Rain = 0
KSB1 031258Z 12006KT 21/14 A3012 RMK A01 T02070137  RH  064%=      5-min Rain = 0
KSB1 031259Z 13005KT 21/14 A3012 RMK A01 T02080138  RH  064%=      5-min Rain = 0
KSB1 031300Z 11006KT 21/14 A3012 RMK A01 T02080138  RH  064%=      5-min Rain = 0
KSB1 031301Z 12006KT 21/14 A3012 RMK A01 T02070138  RH  064%=      5-min Rain = 0
KSB1 031302Z 13007KT 21/14 A3012 RMK A01 T02080139  RH  065%=      5-min Rain = 0
KSB1 031303Z 12007KT 21/14 A3012 RMK A01 T02080139  RH  065%=      5-min Rain = 0
KSB1 031304Z 12006KT 21/14 A3012 RMK A01 T02080139  RH  065%=      5-min Rain = 0
KSB1 031305Z 12008KT 21/14 A3012 RMK A01 T02090139  RH  064%=      5-min Rain = 0
KSB1 031306Z 13007KT 21/14 A3012 RMK A01 T02100140  RH  064%=      5-min Rain = 0
KSB1 031307Z 13008KT 21/14 A3013 RMK A01 T02100140  RH  064%=      5-min Rain = 0
KSB1 031308Z 12006KT 21/14 A3013 RMK A01 T02100140  RH  064%=      5-min Rain = 0
KSB1 031309Z 12007KT 21/14 A3013 RMK A01 T02100140  RH  064%=      5-min Rain = 0
KSB1 031310Z 12006KT 21/14 A3013 RMK A01 T02110140  RH  064%=      5-min Rain = 0
KSB1 031311Z 12005KT 21/14 A3013 RMK A01 T02110141  RH  064%=      5-min Rain = 0
KSB1 031312Z 12006KT 21/14 A3013 RMK A01 T02130141  RH  064%=      5-min Rain = 0
KSB1 031313Z 12006KT 21/14 A3013 RMK A01 T02140142  RH  063%=      5-min Rain = 0
KSB1 031314Z 12007KT 22/14 A3013 RMK A01 T02150142  RH  063%=      5-min Rain = 0
KSB1 031315Z 12007KT 22/14 A3013 RMK A01 T02150142  RH  063%=      5-min Rain = 0
KSB1 031316Z 11006KT 21/14 A3013 RMK A01 T02140142  RH  063%=      5-min Rain = 0
KSB1 031317Z 11006KT 22/14 A3013 RMK A01 T02150142  RH  063%=      5-min Rain = 0
KSB1 031318Z 11006KT 22/14 A3013 RMK A01 T02150142  RH  063%=      5-min Rain = 0
KSB1 031319Z 11006KT 22/14 A3013 RMK A01 T02160142  RH  063%=      5-min Rain = 0
KSB1 031320Z 11007KT 22/14 A3013 RMK A01 T02170143  RH  063%=      5-min Rain = 0
KSB1 031321Z 12008KT 22/14 A3013 RMK A01 T02170143  RH  063%=      5-min Rain = 0
KSB1 031322Z 11007KT 22/14 A3013 RMK A01 T02170143  RH  063%=      5-min Rain = 0
KSB1 031323Z 12007KT 22/14 A3013 RMK A01 T02180144  RH  063%=      5-min Rain = 0
KSB1 031324Z 12008KT 22/14 A3013 RMK A01 T02190144  RH  062%=      5-min Rain = 0
KSB1 031325Z 11006KT 22/14 A3013 RMK A01 T02200144  RH  062%=      5-min Rain = 0
KSB1 031326Z 12007KT 22/14 A3013 RMK A01 T02210144  RH  062%=      5-min Rain = 0
KSB1 031327Z 12008KT 22/14 A3013 RMK A01 T02220144  RH  061%=      5-min Rain = 0
KSB1 031328Z 12009KT 22/14 A3013 RMK A01 T02220144  RH  061%=      5-min Rain = 0
KSB1 031329Z 12010KT 22/14 A3013 RMK A01 T02230143  RH  061%=      5-min Rain = 0
KSB1 031330Z 12009KT 22/14 A3013 RMK A01 T02230143  RH  061%=      5-min Rain = 0
KSB1 031331Z 12008KT 22/14 A3013 RMK A01 T02230143  RH  061%=      5-min Rain = 0
KSB1 031332Z 12009KT 22/14 A3013 RMK A01 T02240143  RH  060%=      5-min Rain = 0
KSB1 031333Z 12008KT 22/14 A3013 RMK A01 T02240143  RH  060%=      5-min Rain = 0
KSB1 031334Z 13008KT 23/14 A3013 RMK A01 T02250144  RH  060%=      5-min Rain = 0
KSB1 031335Z 13009KT 23/14 A3013 RMK A01 T02260143  RH  060%=      5-min Rain = 0
KSB1 031336Z 12008KT 23/14 A3013 RMK A01 T02260143  RH  059%=      5-min Rain = 0
KSB1 031337Z 11008KT 23/14 A3013 RMK A01 T02260143  RH  059%=      5-min Rain = 0
KSB1 031338Z 11009KT 23/14 A3013 RMK A01 T02260142  RH  059%=      5-min Rain = 0
KSB1 031339Z 12008KT 23/14 A3013 RMK A01 T02260142  RH  059%=      5-min Rain = 0
KSB1 031340Z 13009KT 23/14 A3013 RMK A01 T02260143  RH  059%=      5-min Rain = 0
KSB1 031341Z 13008KT 23/14 A3013 RMK A01 T02270142  RH  059%=      5-min Rain = 0
KSB1 031342Z 13008KT 23/14 A3013 RMK A01 T02280142  RH  059%=      5-min Rain = 0
KSB1 031343Z 12010KT 23/14 A3013 RMK A01 T02290142  RH  058%=      5-min Rain = 0
KSB1 031344Z 12009KT 23/14 A3013 RMK A01 T02290142  RH  058%=      5-min Rain = 0
KSB1 031345Z 12008KT 23/14 A3013 RMK A01 T02290141  RH  058%=      5-min Rain = 0
KSB1 031346Z 13008KT 23/14 A3013 RMK A01 T02290142  RH  058%=      5-min Rain = 0
KSB1 031347Z 12008KT 23/14 A3013 RMK A01 T02290141  RH  058%=      5-min Rain = 0
KSB1 031348Z 12009KT 23/14 A3013 RMK A01 T02290140  RH  057%=      5-min Rain = 0
KSB1 031349Z 13006KT 23/14 A3013 RMK A01 T02290141  RH  057%=      5-min Rain = 0
KSB1 031350Z 14007KT 23/14 A3013 RMK A01 T02320142  RH  057%=      5-min Rain = 0
KSB1 031351Z 14007KT 23/14 A3013 RMK A01 T02330141  RH  056%=      5-min Rain = 0
KSB1 031352Z 13008KT 23/14 A3013 RMK A01 T02340141  RH  056%=      5-min Rain = 0
KSB1 031353Z 14009KT 24/14 A3013 RMK A01 T02350141  RH  056%=      5-min Rain = 0
KSB1 031354Z 13008KT 23/14 A3013 RMK A01 T02340141  RH  056%=      5-min Rain = 0
KSB1 031355Z 14008KT 23/14 A3013 RMK A01 T02340141  RH  056%=      5-min Rain = 0
KSB1 031356Z 14008KT 23/14 A3013 RMK A01 T02340142  RH  056%=      5-min Rain = 0
KSB1 031357Z 14008KT 23/14 A3013 RMK A01 T02340141  RH  056%=      5-min Rain = 0
KSB1 031358Z 13008KT 24/14 A3013 RMK A01 T02350141  RH  056%=      5-min Rain = 0
KSB1 031359Z 13008KT 24/14 A3013 RMK A01 T02350142  RH  056%=      5-min Rain = 0
KSB1 031400Z 14009KT 24/14 A3013 RMK A01 T02350141  RH  055%=      5-min Rain = 0
KSB1 031401Z 14008KT 24/14 A3013 RMK A01 T02360141  RH  055%=      5-min Rain = 0
KSB1 031402Z 14008KT 24/14 A3013 RMK A01 T02370141  RH  055%=      5-min Rain = 0
KSB1 031403Z 13006KT 24/14 A3013 RMK A01 T02390142  RH  055%=      5-min Rain = 0
KSB1 031404Z 12007KT 24/14 A3013 RMK A01 T02410143  RH  054%=      5-min Rain = 0
KSB1 031405Z 13008KT 24/14 A3013 RMK A01 T02430143  RH  053%=      5-min Rain = 0
KSB1 031406Z 12007KT 24/14 A3013 RMK A01 T02430141  RH  053%=      5-min Rain = 0
KSB1 031407Z 14008KT 24/14 A3013 RMK A01 T02430140  RH  053%=      5-min Rain = 0
KSB1 031408Z 14008KT 24/14 A3013 RMK A01 T02440140  RH  052%=      5-min Rain = 0
KSB1 031409Z 14008KT 24/14 A3013 RMK A01 T02440137  RH  051%=      5-min Rain = 0
KSB1 031410Z 14009KT 24/14 A3013 RMK A01 T02430136  RH  051%=      5-min Rain = 0
KSB1 031411Z 13008KT 24/14 A3013 RMK A01 T02430135  RH  051%=      5-min Rain = 0
KSB1 031412Z 13009KT 24/14 A3013 RMK A01 T02430138  RH  052%=      5-min Rain = 0
KSB1 031413Z 13006KT 24/14 A3013 RMK A01 T02420138  RH  052%=      5-min Rain = 0
KSB1 031414Z 13007KT 24/14 A3013 RMK A01 T02430138  RH  052%=      5-min Rain = 0
KSB1 031415Z 13008KT 25/14 A3013 RMK A01 T02470136  RH  050%=      5-min Rain = 0
KSB1 031416Z 14008KT 25/13 A3013 RMK A01 T02470134  RH  049%=      5-min Rain = 0
KSB1 031417Z 14009KT 25/14 A3013 RMK A01 T02470135  RH  050%=      5-min Rain = 0
KSB1 031418Z 13008KT 25/13 A3013 RMK A01 T02470132  RH  049%=      5-min Rain = 0
KSB1 031419Z 13008KT 25/13 A3013 RMK A01 T02470133  RH  049%=      5-min Rain = 0
KSB1 031420Z 14008KT 25/13 A3013 RMK A01 T02460133  RH  049%=      5-min Rain = 0
KSB1 031421Z 13008KT 25/14 A3013 RMK A01 T02460136  RH  050%=      5-min Rain = 0
KSB1 031422Z 14009KT 25/14 A3013 RMK A01 T02450137  RH  051%=      5-min Rain = 0
KSB1 031423Z 14009KT 25/14 A3013 RMK A01 T02450137  RH  051%=      5-min Rain = 0
KSB1 031424Z 13008KT 25/14 A3013 RMK A01 T02460137  RH  051%=      5-min Rain = 0
KSB1 031425Z 13007KT 25/14 A3013 RMK A01 T02480137  RH  050%=      5-min Rain = 0
KSB1 031426Z 13008KT 25/14 A3013 RMK A01 T02490138  RH  050%=      5-min Rain = 0
KSB1 031427Z 14006KT 25/14 A3013 RMK A01 T02500136  RH  049%=      5-min Rain = 0
KSB1 031428Z 14007KT 25/14 A3013 RMK A01 T02510137  RH  049%=      5-min Rain = 0
KSB1 031429Z 12007KT 25/14 A3013 RMK A01 T02510137  RH  049%=      5-min Rain = 0
KSB1 031430Z 14008KT 25/14 A3013 RMK A01 T02510138  RH  050%=      5-min Rain = 0
KSB1 031431Z 15006KT 25/14 A3013 RMK A01 T02510137  RH  049%=      5-min Rain = 0
KSB1 031432Z 13006KT 25/14 A3013 RMK A01 T02520138  RH  049%=      5-min Rain = 0
KSB1 031433Z 12007KT 25/14 A3013 RMK A01 T02530138  RH  049%=      5-min Rain = 0
KSB1 031434Z 13007KT 25/14 A3013 RMK A01 T02530137  RH  049%=      5-min Rain = 0
KSB1 031435Z 13009KT 25/14 A3013 RMK A01 T02540138  RH  048%=      5-min Rain = 0
KSB1 031436Z 12009KT 26/14 A3013 RMK A01 T02560138  RH  048%=      5-min Rain = 0
KSB1 031437Z 13007KT 26/14 A3013 RMK A01 T02560138  RH  048%=      5-min Rain = 0
KSB1 031438Z 15008KT 26/14 A3013 RMK A01 T02560138  RH  048%=      5-min Rain = 0
KSB1 031439Z 15006KT 26/14 A3013 RMK A01 T02570138  RH  048%=      5-min Rain = 0
KSB1 031440Z 14008KT 26/14 A3013 RMK A01 T02570138  RH  048%=      5-min Rain = 0
KSB1 031441Z 15007KT 26/14 A3013 RMK A01 T02580138  RH  047%=      5-min Rain = 0
KSB1 031442Z 14006KT 26/14 A3013 RMK A01 T02570137  RH  048%=      5-min Rain = 0
KSB1 031443Z 14008KT 26/14 A3013 RMK A01 T02570138  RH  048%=      5-min Rain = 0
KSB1 031444Z 13007KT 26/14 A3013 RMK A01 T02570137  RH  047%=      5-min Rain = 0
KSB1 031445Z 12007KT 26/14 A3013 RMK A01 T02560136  RH  048%=      5-min Rain = 0
KSB1 031446Z 12007KT 26/14 A3013 RMK A01 T02560137  RH  048%=      5-min Rain = 0
KSB1 031447Z 12008KT 26/14 A3013 RMK A01 T02560136  RH  048%=      5-min Rain = 0
KSB1 031448Z 14008KT 26/14 A3013 RMK A01 T02550137  RH  048%=      5-min Rain = 0
KSB1 031449Z 15009KT 26/14 A3013 RMK A01 T02560137  RH  048%=      5-min Rain = 0
KSB1 031450Z 16007KT 26/14 A3013 RMK A01 T02570137  RH  047%=      5-min Rain = 0
KSB1 031451Z 13009KT 26/14 A3013 RMK A01 T02580137  RH  047%=      5-min Rain = 0
KSB1 031452Z 12009KT 26/14 A3013 RMK A01 T02590137  RH  047%=      5-min Rain = 0
KSB1 031453Z 14008KT 26/14 A3013 RMK A01 T02600137  RH  047%=      5-min Rain = 0
KSB1 031454Z 13007KT 26/14 A3013 RMK A01 T02590136  RH  047%=      5-min Rain = 0
KSB1 031455Z 11007KT 26/14 A3013 RMK A01 T02600136  RH  046%=      5-min Rain = 0
KSB1 031456Z 13008KT 26/14 A3013 RMK A01 T02620137  RH  046%=      5-min Rain = 0
KSB1 031457Z 15007KT 26/14 A3013 RMK A01 T02620137  RH  046%=      5-min Rain = 0
KSB1 031458Z 15007KT 26/14 A3013 RMK A01 T02630136  RH  046%=      5-min Rain = 0
KSB1 031459Z 15008KT 26/14 A3013 RMK A01 T02620136  RH  046%=      5-min Rain = 0
KSB1 031500Z 14010KT 26/14 A3013 RMK A01 T02620136  RH  046%=      5-min Rain = 0
KSB1 031501Z 16007KT 26/14 A3013 RMK A01 T02630136  RH  045%=      5-min Rain = 0
KSB1 031502Z 16005KT 26/14 A3013 RMK A01 T02620136  RH  046%=      5-min Rain = 0
KSB1 031503Z 15006KT 26/14 A3013 RMK A01 T02620136  RH  046%=      5-min Rain = 0
KSB1 031504Z 15007KT 26/14 A3013 RMK A01 T02630137  RH  046%=      5-min Rain = 0
KSB1 031505Z 16008KT 27/14 A3013 RMK A01 T02660137  RH  045%=      5-min Rain = 0
KSB1 031506Z 15009KT 27/14 A3013 RMK A01 T02670137  RH  045%=      5-min Rain = 0
KSB1 031507Z 14008KT 27/14 A3013 RMK A01 T02670137  RH  045%=      5-min Rain = 0
KSB1 031508Z 16008KT 27/14 A3013 RMK A01 T02670137  RH  044%=      5-min Rain = 0
KSB1 031509Z 15007KT 27/14 A3013 RMK A01 T02680137  RH  044%=      5-min Rain = 0
KSB1 031510Z 17005KT 27/14 A3013 RMK A01 T02670136  RH  044%=      5-min Rain = 0
KSB1 031511Z 16007KT 27/14 A3013 RMK A01 T02650136  RH  045%=      5-min Rain = 0
KSB1 031512Z 14007KT 27/14 A3013 RMK A01 T02660137  RH  045%=      5-min Rain = 0
KSB1 031513Z 14007KT 27/14 A3013 RMK A01 T02680137  RH  044%=      5-min Rain = 0
KSB1 031514Z 17006KT 27/14 A3013 RMK A01 T02690136  RH  044%=      5-min Rain = 0
KSB1 031515Z 16006KT 27/14 A3013 RMK A01 T02690137  RH  044%=      5-min Rain = 0
KSB1 031516Z 17010KT 27/14 A3013 RMK A01 T02700136  RH  043%=      5-min Rain = 0
KSB1 031517Z 17008KT 27/13 A3013 RMK A01 T02710134  RH  043%=      5-min Rain = 0
KSB1 031518Z 17008KT 27/13 A3013 RMK A01 T02710133  RH  043%=      5-min Rain = 0
KSB1 031519Z 18009KT 27/13 A3013 RMK A01 T02700134  RH  043%=      5-min Rain = 0
KSB1 031520Z 16009KT 27/14 A3013 RMK A01 T02700135  RH  043%=      5-min Rain = 0
KSB1 031521Z 16008KT 27/14 A3013 RMK A01 T02730136  RH  043%=      5-min Rain = 0
KSB1 031522Z 18008KT 28/14 A3013 RMK A01 T02760136  RH  042%=      5-min Rain = 0
KSB1 031523Z 19010KT 28/14 A3013 RMK A01 T02760135  RH  042%=      5-min Rain = 0
KSB1 031524Z 18010KT 27/14 A3013 RMK A01 T02730135  RH  042%=      5-min Rain = 0
KSB1 031525Z 19010KT 27/14 A3013 RMK A01 T02710136  RH  043%=      5-min Rain = 0
KSB1 031526Z 18012KT 27/14 A3013 RMK A01 T02700136  RH  044%=      5-min Rain = 0
KSB1 031527Z 16010KT 27/14 A3013 RMK A01 T02710135  RH  043%=      5-min Rain = 0
KSB1 031528Z 16010KT 27/14 A3013 RMK A01 T02710136  RH  043%=      5-min Rain = 0
KSB1 031529Z 19007KT 27/14 A3013 RMK A01 T02730138  RH  043%=      5-min Rain = 0
KSB1 031530Z 19009KT 27/14 A3013 RMK A01 T02730137  RH  043%=      5-min Rain = 0
KSB1 031531Z 16010KT 27/14 A3013 RMK A01 T02720136  RH  043%=      5-min Rain = 0
KSB1 031532Z 17008KT 27/14 A3012 RMK A01 T02720136  RH  043%=      5-min Rain = 0
KSB1 031533Z 18010KT 27/14 A3012 RMK A01 T02720137  RH  043%=      5-min Rain = 0
KSB1 031534Z 18007KT 27/14 A3012 RMK A01 T02730138  RH  044%=      5-min Rain = 0
KSB1 031535Z 18008KT 28/14 A3012 RMK A01 T02760139  RH  043%=      5-min Rain = 0
KSB1 031536Z 17005KT 27/14 A3012 RMK A01 T02730137  RH  043%=      5-min Rain = 0
KSB1 031537Z 17008G13KT 27/14 A3012 RMK A01 T02730138  RH  044%=      5-min Rain = 0
KSB1 031538Z 16011KT 28/14 A3012 RMK A01 T02760136  RH  042%=      5-min Rain = 0
KSB1 031539Z 16010KT 28/13 A3012 RMK A01 T02780134  RH  041%=      5-min Rain = 0
KSB1 031540Z 16009KT 28/13 A3012 RMK A01 T02790133  RH  041%=      5-min Rain = 0
KSB1 031541Z 18009KT 28/14 A3012 RMK A01 T02790135  RH  041%=      5-min Rain = 0
KSB1 031542Z 19009KT 28/13 A3012 RMK A01 T02780134  RH  041%=      5-min Rain = 0
KSB1 031543Z 18010KT 28/13 A3012 RMK A01 T02770134  RH  041%=      5-min Rain = 0
KSB1 031544Z 18013KT 28/13 A3012 RMK A01 T02790134  RH  041%=      5-min Rain = 0
KSB1 031545Z 17012KT 28/13 A3012 RMK A01 T02800132  RH  040%=      5-min Rain = 0
KSB1 031546Z 18013KT 28/13 A3012 RMK A01 T02820131  RH  039%=      5-min Rain = 0
KSB1 031547Z 18010KT 28/13 A3012 RMK A01 T02810126  RH  038%=      5-min Rain = 0
KSB1 031548Z 16011KT 28/13 A3012 RMK A01 T02830129  RH  038%=      5-min Rain = 0
KSB1 031549Z 16014KT 29/13 A3012 RMK A01 T02860128  RH  038%=      5-min Rain = 0
KSB1 031550Z 17011KT 29/13 A3012 RMK A01 T02870127  RH  037%=      5-min Rain = 0
KSB1 031551Z 15012KT 29/13 A3012 RMK A01 T02850132  RH  039%=      5-min Rain = 0
KSB1 031552Z 17010KT 28/13 A3012 RMK A01 T02840134  RH  040%=      5-min Rain = 0
KSB1 031553Z 17010KT 29/14 A3012 RMK A01 T02850135  RH  040%=      5-min Rain = 0
KSB1 031554Z 17012KT 28/13 A3012 RMK A01 T02840132  RH  039%=      5-min Rain = 0
KSB1 031555Z 18011KT 29/13 A3012 RMK A01 T02870133  RH  039%=      5-min Rain = 0
KSB1 031556Z 16009KT 29/13 A3012 RMK A01 T02880134  RH  039%=      5-min Rain = 0
KSB1 031557Z 15009KT 29/14 A3012 RMK A01 T02900135  RH  038%=      5-min Rain = 0
KSB1 031558Z 18012KT 29/13 A3012 RMK A01 T02920132  RH  038%=      5-min Rain = 0
KSB1 031559Z 18014KT 29/13 A3012 RMK A01 T02910130  RH  037%=      5-min Rain = 0
KSB1 031600Z 18013KT 29/13 A3012 RMK A01 T02870131  RH  038%=      5-min Rain = 0
KSB1 031601Z 16012KT 29/13 A3012 RMK A01 T02850133  RH  039%=      5-min Rain = 0
KSB1 031602Z 17014KT 29/13 A3012 RMK A01 T02860132  RH  039%=      5-min Rain = 0
KSB1 031603Z 17014KT 29/13 A3012 RMK A01 T02870131  RH  038%=      5-min Rain = 0
KSB1 031604Z 17013KT 29/13 A3012 RMK A01 T02860131  RH  038%=      5-min Rain = 0
KSB1 031605Z 17013KT 29/13 A3012 RMK A01 T02860128  RH  038%=      5-min Rain = 0
KSB1 031606Z 18013KT 29/13 A3012 RMK A01 T02870125  RH  037%=      5-min Rain = 0
KSB1 031607Z 18013KT 29/13 A3012 RMK A01 T02880125  RH  036%=      5-min Rain = 0
KSB1 031608Z 18011KT 29/13 A3012 RMK A01 T02880127  RH  037%=      5-min Rain = 0
KSB1 031609Z 17012KT 29/13 A3012 RMK A01 T02880129  RH  038%=      5-min Rain = 0
KSB1 031610Z 16013KT 29/13 A3012 RMK A01 T02880129  RH  037%=      5-min Rain = 0
KSB1 031611Z 15010KT 29/13 A3012 RMK A01 T02890130  RH  038%=      5-min Rain = 0
KSB1 031612Z 16011KT 29/13 A3012 RMK A01 T02900130  RH  038%=      5-min Rain = 0
KSB1 031613Z 15010KT 29/13 A3012 RMK A01 T02910129  RH  037%=      5-min Rain = 0
KSB1 031614Z 16011KT 29/13 A3012 RMK A01 T02930127  RH  036%=      5-min Rain = 0
KSB1 031615Z 16011KT 30/13 A3012 RMK A01 T02970127  RH  035%=      5-min Rain = 0
KSB1 031616Z 16011KT 30/13 A3012 RMK A01 T02990126  RH  034%=      5-min Rain = 0
KSB1 031617Z 16011KT 30/13 A3012 RMK A01 T02990126  RH  035%=      5-min Rain = 0
KSB1 031618Z 16008KT 30/13 A3012 RMK A01 T02960126  RH  035%=      5-min Rain = 0
KSB1 031619Z 17007KT 30/13 A3012 RMK A01 T02950126  RH  035%=      5-min Rain = 0
KSB1 031620Z 15009KT 30/13 A3012 RMK A01 T02950126  RH  035%=      5-min Rain = 0
KSB1 031621Z 15010KT 30/13 A3012 RMK A01 T02970128  RH  035%=      5-min Rain = 0
KSB1 031622Z 16012KT 30/13 A3012 RMK A01 T02970131  RH  036%=      5-min Rain = 0
KSB1 031623Z 17008KT 30/13 A3012 RMK A01 T02950130  RH  036%=      5-min Rain = 0
KSB1 031624Z 18010KT 30/13 A3011 RMK A01 T02950129  RH  036%=      5-min Rain = 0
KSB1 031625Z 18012KT 30/12 A3011 RMK A01 T02970124  RH  035%=      5-min Rain = 0
KSB1 031626Z 17012KT 30/12 A3011 RMK A01 T02960122  RH  034%=      5-min Rain = 0
KSB1 031627Z 17012KT 30/12 A3011 RMK A01 T02960121  RH  034%=      5-min Rain = 0
KSB1 031628Z 16011KT 30/12 A3011 RMK A01 T02960118  RH  033%=      5-min Rain = 0
KSB1 031629Z 16011KT 30/12 A3011 RMK A01 T02980118  RH  033%=      5-min Rain = 0
KSB1 031630Z 15012KT 30/12 A3011 RMK A01 T03000118  RH  032%=      5-min Rain = 0
KSB1 031631Z 16009KT 30/12 A3011 RMK A01 T03020117  RH  032%=      5-min Rain = 0
KSB1 031632Z 15005KT 30/12 A3011 RMK A01 T03010117  RH  032%=      5-min Rain = 0
KSB1 031633Z 16006G11KT 30/12 A3011 RMK A01 T03010117  RH  032%=      5-min Rain = 0
KSB1 031634Z 18009KT 30/12 A3011 RMK A01 T03020118  RH  032%=      5-min Rain = 0
KSB1 031635Z 17010KT 30/11 A3011 RMK A01 T03030113  RH  031%=      5-min Rain = 0
KSB1 031636Z 18008KT 30/11 A3011 RMK A01 T03030109  RH  030%=      5-min Rain = 0
KSB1 031637Z 16007KT 30/11 A3011 RMK A01 T03010112  RH  031%=      5-min Rain = 0
KSB1 031638Z 17007KT 30/12 A3011 RMK A01 T03030117  RH  032%=      5-min Rain = 0
KSB1 031639Z 17009KT 31/11 A3011 RMK A01 T03050113  RH  031%=      5-min Rain = 0
KSB1 031640Z 17010KT 30/11 A3011 RMK A01 T03010112  RH  031%=      5-min Rain = 0
KSB1 031641Z 17010KT 30/11 A3011 RMK A01 T03000110  RH  031%=      5-min Rain = 0
KSB1 031642Z 16007KT 30/11 A3011 RMK A01 T03000108  RH  030%=      5-min Rain = 0
KSB1 031643Z 16005KT 30/11 A3011 RMK A01 T03000108  RH  030%=      5-min Rain = 0
KSB1 031644Z 18008KT 30/11 A3011 RMK A01 T03020110  RH  030%=      5-min Rain = 0
KSB1 031645Z 20008KT 30/11 A3011 RMK A01 T03030113  RH  031%=      5-min Rain = 0
KSB1 031646Z 16008KT 30/12 A3011 RMK A01 T03040117  RH  032%=      5-min Rain = 0
KSB1 031647Z 16008KT 31/12 A3011 RMK A01 T03070119  RH  032%=      5-min Rain = 0
KSB1 031648Z 16010KT 31/12 A3012 RMK A01 T03090119  RH  031%=      5-min Rain = 0
KSB1 031649Z 16009KT 31/11 A3012 RMK A01 T03090114  RH  030%=      5-min Rain = 0
KSB1 031650Z 14009KT 31/11 A3012 RMK A01 T03090111  RH  030%=      5-min Rain = 0
KSB1 031651Z 16008KT 31/11 A3012 RMK A01 T03080110  RH  030%=      5-min Rain = 0
KSB1 031652Z 15006KT 31/11 A3012 RMK A01 T03070109  RH  030%=      5-min Rain = 0
KSB1 031653Z 15007KT 31/11 A3012 RMK A01 T03070111  RH  030%=      5-min Rain = 0
KSB1 031654Z 15006KT 31/11 A3012 RMK A01 T03080114  RH  030%=      5-min Rain = 0
KSB1 031655Z 13004KT 31/11 A3012 RMK A01 T03080114  RH  030%=      5-min Rain = 0
KSB1 031656Z 19003KT 31/11 A3012 RMK A01 T03080114  RH  030%=      5-min Rain = 0
KSB1 031657Z 19007KT 31/11 A3012 RMK A01 T03080112  RH  030%=      5-min Rain = 0
KSB1 031658Z 19007KT 31/11 A3012 RMK A01 T03090111  RH  030%=      5-min Rain = 0
KSB1 031659Z 17006KT 31/11 A3012 RMK A01 T03090110  RH  029%=      5-min Rain = 0
KSB1 031700Z 17006KT 31/11 A3012 RMK A01 T03100110  RH  029%=      5-min Rain = 0
KSB1 031701Z 17006KT 31/11 A3012 RMK A01 T03110110  RH  029%=      5-min Rain = 0
KSB1 031702Z 16008KT 31/11 A3012 RMK A01 T03120110  RH  029%=      5-min Rain = 0
KSB1 031703Z 17006KT 31/11 A3012 RMK A01 T03120109  RH  029%=      5-min Rain = 0
KSB1 031704Z 16004KT 32/11 A3012 RMK A01 T03150110  RH  028%=      5-min Rain = 0
KSB1 031705Z 19004KT 32/11 A3012 RMK A01 T03150107  RH  028%=      5-min Rain = 0
KSB1 031706Z 21008KT 31/10 A3012 RMK A01 T03110104  RH  028%=      5-min Rain = 0
KSB1 031707Z 24009KT 31/11 A3012 RMK A01 T03120105  RH  028%=      5-min Rain = 0
KSB1 031708Z 24007KT 31/10 A3012 RMK A01 T03110104  RH  028%=      5-min Rain = 0
KSB1 031709Z 24006KT 31/10 A3012 RMK A01 T03080103  RH  028%=      5-min Rain = 0
KSB1 031710Z 23006KT 31/10 A3012 RMK A01 T03060104  RH  029%=      5-min Rain = 0
KSB1 031711Z 21005KT 31/11 A3012 RMK A01 T03060106  RH  029%=      5-min Rain = 0
KSB1 031712Z 18003KT 31/11 A3012 RMK A01 T03070105  RH  029%=      5-min Rain = 0
KSB1 031713Z 17001KT 31/11 A3012 RMK A01 T03070106  RH  029%=      5-min Rain = 0
KSB1 031714Z 24001KT 31/11 A3012 RMK A01 T03100105  RH  028%=      5-min Rain = 0
KSB1 031715Z 23001KT 31/11 A3012 RMK A01 T03090105  RH  028%=      5-min Rain = 0
KSB1 031716Z 09001KT 31/11 A3012 RMK A01 T03080106  RH  029%=      5-min Rain = 0
KSB1 031717Z 11001KT 31/11 A3012 RMK A01 T03080106  RH  029%=      5-min Rain = 0
KSB1 031718Z 11002KT 31/11 A3012 RMK A01 T03090107  RH  029%=      5-min Rain = 0
KSB1 031719Z 10002KT 31/11 A3012 RMK A01 T03090107  RH  029%=      5-min Rain = 0
KSB1 031720Z 09003KT 31/11 A3012 RMK A01 T03090107  RH  029%=      5-min Rain = 0
KSB1 031721Z 14001KT 31/11 A3012 RMK A01 T03100107  RH  029%=      5-min Rain = 0
KSB1 031722Z 10000KT 31/11 A3012 RMK A01 T03120108  RH  028%=      5-min Rain = 0
KSB1 031723Z 11001KT 32/11 A3012 RMK A01 T03160109  RH  028%=      5-min Rain = 0
KSB1 031724Z 09003KT 32/11 A3012 RMK A01 T03190108  RH  027%=      5-min Rain = 0
KSB1 031725Z 08002KT 32/11 A3012 RMK A01 T03200107  RH  027%=      5-min Rain = 0
KSB1 031726Z 13003KT 32/11 A3012 RMK A01 T03200109  RH  027%=      5-min Rain = 0
KSB1 031727Z 12006KT 32/11 A3012 RMK A01 T03210109  RH  027%=      5-min Rain = 0
KSB1 031728Z 11006KT 32/11 A3012 RMK A01 T03170107  RH  027%=      5-min Rain = 0
KSB1 031729Z 12005KT 31/11 A3012 RMK A01 T03130106  RH  028%=      5-min Rain = 0
KSB1 031730Z 12002KT 31/11 A3012 RMK A01 T03100106  RH  028%=      5-min Rain = 0
KSB1 031731Z 05001KT 31/11 A3012 RMK A01 T03100106  RH  028%=      5-min Rain = 0
KSB1 031732Z 08003KT 31/11 A3012 RMK A01 T03110107  RH  029%=      5-min Rain = 0
KSB1 031733Z 07004KT 31/11 A3012 RMK A01 T03140108  RH  028%=      5-min Rain = 0
KSB1 031734Z 14004KT 32/11 A3012 RMK A01 T03180108  RH  028%=      5-min Rain = 0
KSB1 031735Z 17007KT 32/11 A3012 RMK A01 T03210108  RH  027%=      5-min Rain = 0
KSB1 031736Z 19006KT 32/10 A3011 RMK A01 T03190104  RH  027%=      5-min Rain = 0
KSB1 031737Z 20005KT 32/10 A3011 RMK A01 T03150103  RH  027%=      5-min Rain = 0
KSB1 031738Z 20006KT 31/10 A3011 RMK A01 T03130104  RH  028%=      5-min Rain = 0
KSB1 031739Z 18006KT 31/10 A3011 RMK A01 T03140103  RH  027%=      5-min Rain = 0
KSB1 031740Z 16005KT 31/10 A3011 RMK A01 T03130103  RH  027%=      5-min Rain = 0
KSB1 031741Z 14003KT 31/10 A3011 RMK A01 T03120104  RH  028%=      5-min Rain = 0
KSB1 031742Z 14004KT 31/10 A3011 RMK A01 T03130104  RH  028%=      5-min Rain = 0
KSB1 031743Z 14003KT 31/10 A3011 RMK A01 T03140104  RH  027%=      5-min Rain = 0
KSB1 031744Z 15002KT 31/10 A3011 RMK A01 T03140104  RH  027%=      5-min Rain = 0
KSB1 031745Z 13004KT 32/11 A3011 RMK A01 T03160105  RH  027%=      5-min Rain = 0
KSB1 031746Z 14006KT 32/10 A3011 RMK A01 T03170104  RH  027%=      5-min Rain = 0
KSB1 031747Z 17007KT 32/10 A3011 RMK A01 T03170104  RH  027%=      5-min Rain = 0
KSB1 031748Z 16007KT 32/10 A3011 RMK A01 T03160103  RH  027%=      5-min Rain = 0
KSB1 031749Z 17005KT 31/10 A3011 RMK A01 T03140102  RH  027%=      5-min Rain = 0
KSB1 031750Z 21003KT 32/10 A3011 RMK A01 T03150104  RH  027%=      5-min Rain = 0
KSB1 031751Z 26001KT 32/10 A3011 RMK A01 T03170104  RH  027%=      5-min Rain = 0
KSB1 031752Z 35000KT 32/10 A3011 RMK A01 T03170104  RH  027%=      5-min Rain = 0
KSB1 031753Z 36001KT 32/10 A3011 RMK A01 T03190104  RH  027%=      5-min Rain = 0
KSB1 031754Z 08003KT 32/10 A3011 RMK A01 T03200103  RH  026%=      5-min Rain = 0
KSB1 031755Z 11004KT 32/10 A3011 RMK A01 T03190104  RH  027%=      5-min Rain = 0
KSB1 031756Z 13005KT 32/10 A3011 RMK A01 T03210103  RH  026%=      5-min Rain = 0
KSB1 031757Z 09004KT 32/10 A3011 RMK A01 T03220102  RH  026%=      5-min Rain = 0
KSB1 031758Z 09004KT 32/10 A3011 RMK A01 T03210102  RH  026%=      5-min Rain = 0
KSB1 031759Z 09002KT 32/10 A3011 RMK A01 T03210102  RH  026%=      5-min Rain = 0
KSB1 031800Z 23004G10KT 32/10 A301 RMK A01 T03230100  RH  025%=      5-min Rain = 0
KSB1 031801Z 27007KT 33/10 A3011 RMK A01 T03260099  RH  025%=      5-min Rain = 0
KSB1 031802Z 23005KT 33/10 A3011 RMK A01 T03250095  RH  024%=      5-min Rain = 0
KSB1 031803Z 20006KT 32/10 A3011 RMK A01 T03230096  RH  025%=      5-min Rain = 0
KSB1 031804Z 20004KT 32/10 A301 RMK A01 T03240096  RH  025%=      5-min Rain = 0
KSB1 031805Z 21003KT 33/10 A301 RMK A01 T03270097  RH  024%=      5-min Rain = 0
KSB1 031806Z 25006KT 33/10 A301 RMK A01 T03300099  RH  024%=      5-min Rain = 0
KSB1 031807Z 24008KT 33/10 A301 RMK A01 T03300099  RH  024%=      5-min Rain = 0
KSB1 031808Z 23009KT 33/10 A301 RMK A01 T03320099  RH  024%=      5-min Rain = 0
KSB1 031809Z 20009KT 33/10 A301 RMK A01 T03290099  RH  024%=      5-min Rain = 0
KSB1 031810Z 20012KT 33/10 A301 RMK A01 T03280098  RH  024%=      5-min Rain = 0
KSB1 031811Z 20006KT 32/10 A301 RMK A01 T03240097  RH  025%=      5-min Rain = 0
KSB1 031812Z 17005KT 32/10 A301 RMK A01 T03220097  RH  025%=      5-min Rain = 0
KSB1 031813Z 16006KT 32/10 A301 RMK A01 T03240099  RH  025%=      5-min Rain = 0
KSB1 031814Z 15005KT 33/10 A301 RMK A01 T03280101  RH  025%=      5-min Rain = 0
KSB1 031815Z 23005KT 33/10 A301 RMK A01 T03290099  RH  024%=      5-min Rain = 0
KSB1 031816Z 23002KT 33/10 A301 RMK A01 T03290099  RH  024%=      5-min Rain = 0
KSB1 031817Z 25002KT 33/10 A301 RMK A01 T03270099  RH  025%=      5-min Rain = 0
KSB1 031818Z 22005KT 33/10 A301 RMK A01 T03280100  RH  025%=      5-min Rain = 0
KSB1 031819Z 20006G11KT 33/10 A301 RMK A01 T03290100  RH  025%=      5-min Rain = 0
KSB1 031820Z 21006KT 33/10 A301 RMK A01 T03310099  RH  024%=      5-min Rain = 0
KSB1 031821Z 22005KT 33/10 A301 RMK A01 T03260097  RH  024%=      5-min Rain = 0
KSB1 031822Z 16004KT 32/10 A301 RMK A01 T03220097  RH  025%=      5-min Rain = 0
KSB1 031823Z 19003KT 32/10 A301 RMK A01 T03240098  RH  025%=      5-min Rain = 0
KSB1 031824Z 20005KT 33/10 A301 RMK A01 T03270098  RH  025%=      5-min Rain = 0
KSB1 031825Z 19006KT 33/10 A301 RMK A01 T03270098  RH  025%=      5-min Rain = 0
KSB1 031826Z 19008KT 33/10 A3009 RMK A01 T03290100  RH  025%=      5-min Rain = 0
KSB1 031827Z 20009KT 33/10 A3009 RMK A01 T03340102  RH  024%=      5-min Rain = 0
KSB1 031828Z 22009KT 34/10 A3009 RMK A01 T03360101  RH  024%=      5-min Rain = 0
KSB1 031829Z 22007KT 34/10 A3009 RMK A01 T03360101  RH  024%=      5-min Rain = 0
KSB1 031830Z 20006KT 33/10 A3009 RMK A01 T03340100  RH  024%=      5-min Rain = 0
KSB1 031831Z 20005KT 33/10 A3009 RMK A01 T03310097  RH  024%=      5-min Rain = 0
KSB1 031832Z 18005KT 33/10 A3009 RMK A01 T03290097  RH  024%=      5-min Rain = 0
KSB1 031833Z 18007KT 33/10 A3009 RMK A01 T03270096  RH  024%=      5-min Rain = 0
KSB1 031834Z 17005KT 33/10 A3009 RMK A01 T03250096  RH  024%=      5-min Rain = 0
KSB1 031835Z 16006KT 33/10 A3009 RMK A01 T03270098  RH  024%=      5-min Rain = 0
KSB1 031836Z 13007KT 33/10 A3009 RMK A01 T03280096  RH  024%=      5-min Rain = 0
KSB1 031837Z 13009KT 33/10 A3009 RMK A01 T03290096  RH  024%=      5-min Rain = 0
KSB1 031838Z 06007KT 33/10 A3009 RMK A01 T03300095  RH  024%=      5-min Rain = 0
KSB1 031839Z 08004KT 33/09 A3009 RMK A01 T03300094  RH  024%=      5-min Rain = 0
KSB1 031840Z 15001KT 33/10 A3009 RMK A01 T03290095  RH  024%=      5-min Rain = 0
KSB1 031841Z 18005KT 33/10 A3009 RMK A01 T03300096  RH  024%=      5-min Rain = 0
KSB1 031842Z 20003KT 33/09 A3009 RMK A01 T03300094  RH  023%=      5-min Rain = 0
KSB1 031843Z 13002KT 33/10 A3009 RMK A01 T03310096  RH  024%=      5-min Rain = 0
KSB1 031844Z 18003KT 33/10 A3009 RMK A01 T03330096  RH  023%=      5-min Rain = 0
KSB1 031845Z 20008KT 34/10 A3008 RMK A01 T03350095  RH  023%=      5-min Rain = 0
KSB1 031846Z 20006KT 33/09 A3009 RMK A01 T03340092  RH  023%=      5-min Rain = 0
KSB1 031847Z 21004KT 33/09 A3008 RMK A01 T03320092  RH  023%=      5-min Rain = 0
KSB1 031848Z 20006KT 33/09 A3008 RMK A01 T03310092  RH  023%=      5-min Rain = 0
KSB1 031849Z 24003KT 33/09 A3009 RMK A01 T03300091  RH  023%=      5-min Rain = 0
KSB1 031850Z 25003KT 33/09 A3008 RMK A01 T03300091  RH  023%=      5-min Rain = 0
KSB1 031851Z 20004KT 33/09 A3008 RMK A01 T03300091  RH  023%=      5-min Rain = 0
KSB1 031852Z 24002KT 33/09 A3008 RMK A01 T03310090  RH  023%=      5-min Rain = 0
KSB1 031853Z 25004KT 33/09 A3008 RMK A01 T03310090  RH  023%=      5-min Rain = 0
KSB1 031854Z 21004KT 33/09 A3008 RMK A01 T03310091  RH  023%=      5-min Rain = 0
KSB1 031855Z 21008KT 34/09 A3008 RMK A01 T03350089  RH  022%=      5-min Rain = 0
KSB1 031856Z 21006KT 34/09 A3008 RMK A01 T03350085  RH  021%=      5-min Rain = 0
KSB1 031857Z 21007KT 33/09 A3008 RMK A01 T03330086  RH  022%=      5-min Rain = 0
KSB1 031858Z 21006KT 33/09 A3008 RMK A01 T03300085  RH  022%=      5-min Rain = 0
KSB1 031859Z 22006KT 33/09 A3008 RMK A01 T03280087  RH  023%=      5-min Rain = 0
KSB1 031900Z 31005KT 33/09 A3008 RMK A01 T03300089  RH  023%=      5-min Rain = 0
KSB1 031901Z 32004KT 33/09 A3008 RMK A01 T03310090  RH  023%=      5-min Rain = 0
KSB1 031902Z 28007KT 33/09 A3008 RMK A01 T03310090  RH  023%=      5-min Rain = 0
KSB1 031903Z 29008KT 33/09 A3008 RMK A01 T03310090  RH  023%=      5-min Rain = 0
KSB1 031904Z 34007KT 33/09 A3008 RMK A01 T03320086  RH  022%=      5-min Rain = 0
KSB1 031905Z 35008KT 33/09 A3008 RMK A01 T03340087  RH  022%=      5-min Rain = 0
KSB1 031906Z 03008KT 34/09 A3008 RMK A01 T03380088  RH  022%=      5-min Rain = 0
KSB1 031907Z 05006KT 34/09 A3008 RMK A01 T03410089  RH  021%=      5-min Rain = 0
KSB1 031908Z 07007KT 34/09 A3008 RMK A01 T03440088  RH  021%=      5-min Rain = 0
KSB1 031909Z 07007KT 34/09 A3008 RMK A01 T03420087  RH  021%=      5-min Rain = 0
KSB1 031910Z 04006KT 34/08 A3008 RMK A01 T03370084  RH  021%=      5-min Rain = 0
KSB1 031911Z 36004KT 33/08 A3008 RMK A01 T03340084  RH  021%=      5-min Rain = 0
KSB1 031912Z 05003KT 34/08 A3008 RMK A01 T03350084  RH  021%=      5-min Rain = 0
KSB1 031913Z 05002KT 34/09 A3008 RMK A01 T03380085  RH  021%=      5-min Rain = 0
KSB1 031914Z 30001KT 34/08 A3008 RMK A01 T03400084  RH  021%=      5-min Rain = 0
KSB1 031915Z 21000KT 34/08 A3007 RMK A01 T03390084  RH  021%=      5-min Rain = 0
KSB1 031916Z 21002KT 34/09 A3007 RMK A01 T03390085  RH  021%=      5-min Rain = 0
KSB1 031917Z 26003KT 34/09 A3007 RMK A01 T03380085  RH  021%=      5-min Rain = 0
KSB1 031918Z 18002KT 34/08 A3007 RMK A01 T03420076  RH  019%=      5-min Rain = 0
KSB1 031919Z 32004KT 35/08 A3007 RMK A01 T03460079  RH  019%=      5-min Rain = 0
KSB1 031920Z 30010KT 35/07 A3007 RMK A01 T03480070  RH  018%=      5-min Rain = 0
KSB1 031921Z 29008KT 35/06 A3007 RMK A01 T03480064  RH  017%=      5-min Rain = 0
KSB1 031922Z 30009KT 35/06 A3007 RMK A01 T03460063  RH  017%=      5-min Rain = 0
KSB1 031923Z 33005KT 35/06 A3007 RMK A01 T03450062  RH  017%=      5-min Rain = 0
KSB1 031924Z 02004KT 35/06 A3007 RMK A01 T03450060  RH  017%=      5-min Rain = 0
KSB1 031925Z 30006G18KT 35/06 A3007 RMK A01 T03460063  RH  017%=      5-min Rain = 0
KSB1 031926Z 27010KT 35/07 A3007 RMK A01 T03510067  RH  017%=      5-min Rain = 0
KSB1 031927Z 25007KT 35/06 A3007 RMK A01 T03470064  RH  017%=      5-min Rain = 0
KSB1 031928Z 30009KT 34/06 A3007 RMK A01 T03400063  RH  018%=      5-min Rain = 0
KSB1 031929Z 03004KT 34/06 A3007 RMK A01 T03360063  RH  018%=      5-min Rain = 0
KSB1 031930Z 35006KT 34/06 A3007 RMK A01 T03360064  RH  018%=      5-min Rain = 0
KSB1 031931Z 28008KT 34/06 A3007 RMK A01 T03410063  RH  018%=      5-min Rain = 0
KSB1 031932Z 27010KT 34/06 A3007 RMK A01 T03420063  RH  018%=      5-min Rain = 0
KSB1 031933Z 27005KT 34/06 A3007 RMK A01 T03400062  RH  018%=      5-min Rain = 0
KSB1 031934Z 03003KT 34/06 A3007 RMK A01 T03360063  RH  018%=      5-min Rain = 0
KSB1 031935Z 01004KT 34/06 A3007 RMK A01 T03350062  RH  018%=      5-min Rain = 0
KSB1 031936Z 04003KT 33/06 A3007 RMK A01 T03340063  RH  019%=      5-min Rain = 0
KSB1 031937Z 02002KT 34/07 A3007 RMK A01 T03360066  RH  019%=      5-min Rain = 0
KSB1 031938Z 35006KT 34/06 A3007 RMK A01 T03370064  RH  018%=      5-min Rain = 0
KSB1 031939Z 35009KT 34/06 A3006 RMK A01 T03390062  RH  018%=      5-min Rain = 0
KSB1 031940Z 34009KT 34/06 A3007 RMK A01 T03400062  RH  018%=      5-min Rain = 0
KSB1 031941Z 35008KT 34/06 A3007 RMK A01 T03420061  RH  018%=      5-min Rain = 0
KSB1 031942Z 35008KT 34/06 A3006 RMK A01 T03410061  RH  018%=      5-min Rain = 0
KSB1 031943Z 35007KT 34/06 A3006 RMK A01 T03410061  RH  018%=      5-min Rain = 0
KSB1 031944Z 35006KT 34/06 A3006 RMK A01 T03440061  RH  017%=      5-min Rain = 0
KSB1 031945Z 00006KT 35/06 A3006 RMK A01 T03460060  RH  017%=      5-min Rain = 0
KSB1 031946Z 36008KT 35/06 A3006 RMK A01 T03470060  RH  017%=      5-min Rain = 0
KSB1 031947Z 30006KT 35/06 A3006 RMK A01 T03490060  RH  017%=      5-min Rain = 0
KSB1 031948Z 28009KT 35/06 A3006 RMK A01 T03470061  RH  017%=      5-min Rain = 0
KSB1 031949Z 26005KT 35/06 A3006 RMK A01 T03470062  RH  017%=      5-min Rain = 0
KSB1 031950Z 23006KT 35/06 A3006 RMK A01 T03470062  RH  017%=      5-min Rain = 0
KSB1 031951Z 28012KT 35/06 A3006 RMK A01 T03500064  RH  017%=      5-min Rain = 0
KSB1 031952Z 26011G16KT 35/06 A3006 RMK A01 T03520062  RH  017%=      5-min Rain = 0
KSB1 031953Z 31011KT 35/06 A3006 RMK A01 T03500061  RH  017%=      5-min Rain = 0
KSB1 031954Z 32009KT 35/06 A3006 RMK A01 T03460059  RH  017%=      5-min Rain = 0
KSB1 031955Z 32009KT 34/06 A3006 RMK A01 T03430059  RH  017%=      5-min Rain = 0
KSB1 031956Z 30008KT 34/06 A3006 RMK A01 T03430059  RH  017%=      5-min Rain = 0
KSB1 031957Z 32009G14KT 34/06 A3006 RMK A01 T03420059  RH  017%=      5-min Rain = 0
KSB1 031958Z 35010KT 34/06 A3006 RMK A01 T03410060  RH  017%=      5-min Rain = 0
KSB1 031959Z 00008KT 34/06 A3006 RMK A01 T03440060  RH  017%=      5-min Rain = 0
KSB1 032000Z 34007G12KT 35/06 A3006 RMK A01 T03450060  RH  017%=      5-min Rain = 0
KSB1 032001Z 32012KT 35/06 A3006 RMK A01 T03480061  RH  017%=      5-min Rain = 0
KSB1 032002Z 32010KT 35/06 A3006 RMK A01 T03490059  RH  017%=      5-min Rain = 0
KSB1 032003Z 35007KT 35/06 A3006 RMK A01 T03450060  RH  017%=      5-min Rain = 0
KSB1 032004Z 34005KT 34/06 A3006 RMK A01 T03430060  RH  017%=      5-min Rain = 0
KSB1 032005Z 00010G15KT 35/06 A3006 RMK A01 T03450061  RH  017%=      5-min Rain = 0
KSB1 032006Z 35011KT 35/06 A3005 RMK A01 T03480059  RH  017%=      5-min Rain = 0
KSB1 032007Z 00005KT 35/06 A3006 RMK A01 T03490059  RH  017%=      5-min Rain = 0
KSB1 032008Z 30005KT 35/06 A3006 RMK A01 T03470061  RH  017%=      5-min Rain = 0
KSB1 032009Z 36006KT 35/06 A3005 RMK A01 T03470062  RH  017%=      5-min Rain = 0
KSB1 032010Z 33010KT 35/06 A3005 RMK A01 T03480063  RH  017%=      5-min Rain = 0
KSB1 032011Z 33009KT 35/06 A3006 RMK A01 T03510064  RH  017%=      5-min Rain = 0
KSB1 032012Z 34005KT 35/06 A3005 RMK A01 T03500063  RH  017%=      5-min Rain = 0
KSB1 032013Z 01005KT 35/06 A3005 RMK A01 T03490064  RH  017%=      5-min Rain = 0
KSB1 032014Z 00007KT 35/06 A3005 RMK A01 T03500064  RH  017%=      5-min Rain = 0
KSB1 032015Z 31008KT 35/06 A3005 RMK A01 T03520063  RH  017%=      5-min Rain = 0
KSB1 032016Z 31007G12KT 36/06 A3005 RMK A01 T03560061  RH  016%=      5-min Rain = 0
KSB1 032017Z 29011KT 36/06 A3005 RMK A01 T03560059  RH  016%=      5-min Rain = 0
KSB1 032018Z 27010KT 36/06 A3005 RMK A01 T03560057  RH  016%=      5-min Rain = 0
KSB1 032019Z 27008KT 36/06 A3005 RMK A01 T03550056  RH  016%=      5-min Rain = 0
KSB1 032020Z 27006KT 35/06 A3005 RMK A01 T03540055  RH  016%=      5-min Rain = 0
KSB1 032021Z 32007KT 35/06 A3005 RMK A01 T03520056  RH  016%=      5-min Rain = 0
KSB1 032022Z 32006G12KT 35/06 A3005 RMK A01 T03500056  RH  016%=      5-min Rain = 0
KSB1 032023Z 12005KT 35/06 A3005 RMK A01 T03460057  RH  017%=      5-min Rain = 0
KSB1 032024Z 31003KT 35/06 A3005 RMK A01 T03490058  RH  017%=      5-min Rain = 0
KSB1 032025Z 31008G13KT 35/06 A3005 RMK A01 T03530058  RH  016%=      5-min Rain = 0
KSB1 032026Z 32007KT 35/06 A3005 RMK A01 T03540058  RH  016%=      5-min Rain = 0
KSB1 032027Z 33005KT 36/06 A3005 RMK A01 T03550057  RH  016%=      5-min Rain = 0
KSB1 032028Z 33005KT 35/06 A3005 RMK A01 T03540057  RH  016%=      5-min Rain = 0
KSB1 032029Z 31010KT 36/06 A3005 RMK A01 T03550056  RH  016%=      5-min Rain = 0
KSB1 032030Z 31007KT 36/06 A3005 RMK A01 T03550055  RH  016%=      5-min Rain = 0
KSB1 032031Z 31005KT 35/06 A3005 RMK A01 T03520055  RH  016%=      5-min Rain = 0
KSB1 032032Z 32010KT 35/05 A3005 RMK A01 T03540054  RH  016%=      5-min Rain = 0
KSB1 032033Z 31012KT 36/05 A3005 RMK A01 T03570052  RH  015%=      5-min Rain = 0
KSB1 032034Z 33010G15KT 36/05 A3005 RMK A01 T03600052  RH  015%=      5-min Rain = 0
KSB1 032035Z 33011KT 36/06 A3005 RMK A01 T03630055  RH  015%=      5-min Rain = 0
KSB1 032036Z 33009KT 36/05 A3005 RMK A01 T03620054  RH  015%=      5-min Rain = 0
KSB1 032037Z 31007KT 36/05 A3005 RMK A01 T03590053  RH  015%=      5-min Rain = 0
KSB1 032038Z 31008KT 35/05 A3005 RMK A01 T03530054  RH  016%=      5-min Rain = 0
KSB1 032039Z 33006KT 35/05 A3005 RMK A01 T03520054  RH  016%=      5-min Rain = 0
KSB1 032040Z 31003KT 35/06 A3005 RMK A01 T03530055  RH  016%=      5-min Rain = 0
KSB1 032041Z 31010KT 35/06 A3004 RMK A01 T03530056  RH  016%=      5-min Rain = 0
KSB1 032042Z 33008KT 35/06 A3004 RMK A01 T03520056  RH  016%=      5-min Rain = 0
KSB1 032043Z 35004KT 35/06 A3004 RMK A01 T03510057  RH  016%=      5-min Rain = 0
KSB1 032044Z 33005KT 35/06 A3004 RMK A01 T03510057  RH  016%=      5-min Rain = 0
KSB1 032045Z 32008KT 35/05 A3004 RMK A01 T03530051  RH  015%=      5-min Rain = 0
KSB1 032046Z 32005KT 35/05 A3004 RMK A01 T03520050  RH  015%=      5-min Rain = 0
KSB1 032047Z 30003KT 35/05 A3004 RMK A01 T03490049  RH  016%=      5-min Rain = 0
KSB1 032048Z 27003KT 35/05 A3004 RMK A01 T03470050  RH  016%=      5-min Rain = 0
KSB1 032049Z 22002KT 35/05 A3004 RMK A01 T03460049  RH  016%=      5-min Rain = 0
KSB1 032050Z 25009KT 35/05 A3004 RMK A01 T03480053  RH  016%=      5-min Rain = 0
KSB1 032051Z 27013KT 36/06 A3004 RMK A01 T03580057  RH  016%=      5-min Rain = 0
KSB1 032052Z 28011KT 36/05 A3004 RMK A01 T03610052  RH  015%=      5-min Rain = 0
KSB1 032053Z 27008KT 36/05 A3004 RMK A01 T03570050  RH  015%=      5-min Rain = 0
KSB1 032054Z 30011KT 36/05 A3004 RMK A01 T03570052  RH  015%=      5-min Rain = 0
KSB1 032055Z 31008KT 36/05 A3004 RMK A01 T03590052  RH  015%=      5-min Rain = 0
KSB1 032056Z 32011KT 36/05 A3004 RMK A01 T03560052  RH  015%=      5-min Rain = 0
KSB1 032057Z 30010KT 36/05 A3004 RMK A01 T03560052  RH  015%=      5-min Rain = 0
KSB1 032058Z 29007KT 35/05 A3004 RMK A01 T03540052  RH  015%=      5-min Rain = 0
KSB1 032059Z 29005KT 35/05 A3004 RMK A01 T03530051  RH  015%=      5-min Rain = 0
KSB1 032100Z 32007G12KT 35/05 A3004 RMK A01 T03530053  RH  016%=      5-min Rain = 0
KSB1 032101Z 33006KT 36/05 A3004 RMK A01 T03580052  RH  015%=      5-min Rain = 0
KSB1 032102Z 23001KT 35/05 A3004 RMK A01 T03540050  RH  015%=      5-min Rain = 0
KSB1 032103Z 05003KT 35/05 A3003 RMK A01 T03510050  RH  015%=      5-min Rain = 0
KSB1 032104Z 02003KT 35/05 A3003 RMK A01 T03480050  RH  016%=      5-min Rain = 0
KSB1 032105Z 35005KT 35/05 A3003 RMK A01 T03480051  RH  016%=      5-min Rain = 0
KSB1 032106Z 33013G18KT 35/05 A3003 RMK A01 T03530053  RH  015%=      5-min Rain = 0
KSB1 032107Z 33013G18KT 36/05 A3003 RMK A01 T03580051  RH  015%=      5-min Rain = 0
KSB1 032108Z 31011KT 36/05 A3003 RMK A01 T03570051  RH  015%=      5-min Rain = 0
KSB1 032109Z 28005KT 36/05 A3003 RMK A01 T03590051  RH  015%=      5-min Rain = 0
KSB1 032110Z 30006G12KT 36/05 A3003 RMK A01 T03590051  RH  015%=      5-min Rain = 0
KSB1 032111Z 28011KT 36/05 A3003 RMK A01 T03600050  RH  015%=      5-min Rain = 0
KSB1 032112Z 29009G14KT 36/05 A3003 RMK A01 T03580049  RH  015%=      5-min Rain = 0
KSB1 032113Z 31006G13KT 35/05 A3003 RMK A01 T03540049  RH  015%=      5-min Rain = 0
KSB1 032114Z 31009KT 35/05 A3003 RMK A01 T03540051  RH  015%=      5-min Rain = 0
KSB1 032115Z 34011KT 36/05 A3003 RMK A01 T03590054  RH  015%=      5-min Rain = 0
KSB1 032116Z 35014KT 36/05 A3003 RMK A01 T03630054  RH  015%=      5-min Rain = 0
KSB1 032117Z 32011KT 36/05 A3003 RMK A01 T03610053  RH  015%=      5-min Rain = 0
KSB1 032118Z 31009G14KT 36/05 A3003 RMK A01 T03580052  RH  015%=      5-min Rain = 0
KSB1 032119Z 31006KT 35/05 A3003 RMK A01 T03520049  RH  015%=      5-min Rain = 0
KSB1 032120Z 34004KT 35/05 A3003 RMK A01 T03510051  RH  016%=      5-min Rain = 0
KSB1 032121Z 32003KT 36/05 A3003 RMK A01 T03550051  RH  015%=      5-min Rain = 0
KSB1 032122Z 35004KT 36/05 A3003 RMK A01 T03560052  RH  015%=      5-min Rain = 0
KSB1 032123Z 35005KT 36/05 A3003 RMK A01 T03560053  RH  015%=      5-min Rain = 0
KSB1 032124Z 32004KT 36/05 A3003 RMK A01 T03560052  RH  015%=      5-min Rain = 0
KSB1 032125Z 01004KT 36/05 A3003 RMK A01 T03550052  RH  015%=      5-min Rain = 0
KSB1 032126Z 04004KT 36/05 A3003 RMK A01 T03550052  RH  015%=      5-min Rain = 0
KSB1 032127Z 04004KT 35/05 A3003 RMK A01 T03520051  RH  015%=      5-min Rain = 0
KSB1 032128Z 04004KT 35/05 A3003 RMK A01 T03490051  RH  016%=      5-min Rain = 0
KSB1 032129Z 01003KT 35/05 A3003 RMK A01 T03480051  RH  016%=      5-min Rain = 0
KSB1 032130Z 34007KT 35/05 A3003 RMK A01 T03480051  RH  016%=      5-min Rain = 0
KSB1 032131Z 33007KT 35/05 A3002 RMK A01 T03510050  RH  015%=      5-min Rain = 0
KSB1 032132Z 34008KT 35/05 A3002 RMK A01 T03540051  RH  015%=      5-min Rain = 0
KSB1 032133Z 30011G17KT 36/05 A3002 RMK A01 T03610053  RH  015%=      5-min Rain = 0
KSB1 032134Z 31013KT 36/05 A3002 RMK A01 T03640050  RH  014%=      5-min Rain = 0
KSB1 032135Z 30012KT 36/05 A3002 RMK A01 T03610049  RH  015%=      5-min Rain = 0
KSB1 032136Z 28010KT 36/05 A3002 RMK A01 T03620049  RH  014%=      5-min Rain = 0
KSB1 032137Z 27006KT 36/05 A3002 RMK A01 T03630049  RH  014%=      5-min Rain = 0
KSB1 032138Z 28006KT 36/05 A3002 RMK A01 T03630048  RH  014%=      5-min Rain = 0
KSB1 032139Z 27007G12KT 36/05 A3002 RMK A01 T03630048  RH  014%=      5-min Rain = 0
KSB1 032140Z 28010KT 36/05 A3002 RMK A01 T03630046  RH  014%=      5-min Rain = 0
KSB1 032141Z 30008G13KT 36/05 A3002 RMK A01 T03640048  RH  014%=      5-min Rain = 0
KSB1 032142Z 32012KT 37/05 A3002 RMK A01 T03650050  RH  014%=      5-min Rain = 0
KSB1 032143Z 31011KT 37/05 A3002 RMK A01 T03650050  RH  014%=      5-min Rain = 0
KSB1 032144Z 31012KT 36/05 A3002 RMK A01 T03630050  RH  014%=      5-min Rain = 0
KSB1 032145Z 32010KT 37/05 A3002 RMK A01 T03650049  RH  014%=      5-min Rain = 0
KSB1 032146Z 33010KT 36/05 A3002 RMK A01 T03600048  RH  014%=      5-min Rain = 0
KSB1 032147Z 31009KT 36/05 A3002 RMK A01 T03600049  RH  015%=      5-min Rain = 0
KSB1 032148Z 32012KT 36/05 A3002 RMK A01 T03600049  RH  015%=      5-min Rain = 0
KSB1 032149Z 33013KT 36/05 A3002 RMK A01 T03620051  RH  015%=      5-min Rain = 0
KSB1 032150Z 32010KT 36/05 A3002 RMK A01 T03610050  RH  015%=      5-min Rain = 0
KSB1 032151Z 31007KT 36/05 A3002 RMK A01 T03580048  RH  015%=      5-min Rain = 0
KSB1 032152Z 30003KT 36/05 A3002 RMK A01 T03560047  RH  015%=      5-min Rain = 0
KSB1 032153Z 27004KT 36/05 A3002 RMK A01 T03550048  RH  015%=      5-min Rain = 0
KSB1 032154Z 29005KT 36/05 A3002 RMK A01 T03550049  RH  015%=      5-min Rain = 0
KSB1 032155Z 28010KT 36/05 A3002 RMK A01 T03560050  RH  015%=      5-min Rain = 0
KSB1 032156Z 29010KT 36/05 A3002 RMK A01 T03590052  RH  015%=      5-min Rain = 0
KSB1 032157Z 28007G12KT 36/05 A3002 RMK A01 T03600052  RH  015%=      5-min Rain = 0
KSB1 032158Z 26003KT 36/05 A3001 RMK A01 T03570050  RH  015%=      5-min Rain = 0
KSB1 032159Z 27007KT 36/05 A3001 RMK A01 T03570051  RH  015%=      5-min Rain = 0
KSB1 032200Z 28010KT 36/05 A3001 RMK A01 T03600050  RH  015%=      5-min Rain = 0
KSB1 032201Z 27010KT 36/05 A3001 RMK A01 T03630050  RH  015%=      5-min Rain = 0
KSB1 032202Z 28008KT 37/05 A3001 RMK A01 T03650051  RH  014%=      5-min Rain = 0
KSB1 032203Z 27009KT 37/05 A3001 RMK A01 T03670051  RH  014%=      5-min Rain = 0
KSB1 032204Z 26013KT 37/05 A3001 RMK A01 T03670051  RH  014%=      5-min Rain = 0
KSB1 032205Z 27009KT 36/05 A3001 RMK A01 T03630049  RH  014%=      5-min Rain = 0
KSB1 032206Z 25010KT 36/05 A3001 RMK A01 T03610049  RH  015%=      5-min Rain = 0
KSB1 032207Z 26012KT 36/05 A3001 RMK A01 T03610047  RH  014%=      5-min Rain = 0
KSB1 032208Z 30009KT 36/05 A3001 RMK A01 T03610048  RH  014%=      5-min Rain = 0
KSB1 032209Z 27011KT 36/05 A3001 RMK A01 T03600047  RH  014%=      5-min Rain = 0
KSB1 032210Z 26010KT 36/05 A3001 RMK A01 T03590046  RH  014%=      5-min Rain = 0
KSB1 032211Z 27007KT 36/05 A3001 RMK A01 T03580046  RH  014%=      5-min Rain = 0
KSB1 032212Z 27004KT 36/05 A3001 RMK A01 T03590048  RH  015%=      5-min Rain = 0
KSB1 032213Z 32005G11KT 36/05 A3001 RMK A01 T03620052  RH  015%=      5-min Rain = 0
KSB1 032214Z 34009KT 37/06 A3001 RMK A01 T03650057  RH  015%=      5-min Rain = 0
KSB1 032215Z 32010KT 37/06 A3001 RMK A01 T03670058  RH  015%=      5-min Rain = 0
KSB1 032216Z 32009G14KT 37/06 A3001 RMK A01 T03670056  RH  015%=      5-min Rain = 0
KSB1 032217Z 31010KT 37/06 A3001 RMK A01 T03670056  RH  015%=      5-min Rain = 0
KSB1 032218Z 32009KT 36/05 A3001 RMK A01 T03630053  RH  015%=      5-min Rain = 0
KSB1 032219Z 31009KT 36/05 A3001 RMK A01 T03620053  RH  015%=      5-min Rain = 0
KSB1 032220Z 31008KT 36/05 A3001 RMK A01 T03610053  RH  015%=      5-min Rain = 0
KSB1 032221Z 34013KT 36/05 A3001 RMK A01 T03590054  RH  015%=      5-min Rain = 0
KSB1 032222Z 35014KT 36/05 A3001 RMK A01 T03600054  RH  015%=      5-min Rain = 0
KSB1 032223Z 32012KT 36/05 A3001 RMK A01 T03620053  RH  015%=      5-min Rain = 0
KSB1 032224Z 33010KT 36/05 A3001 RMK A01 T03630054  RH  015%=      5-min Rain = 0
KSB1 032225Z 33006KT 36/05 A3001 RMK A01 T03600053  RH  015%=      5-min Rain = 0
KSB1 032226Z 30003KT 36/05 A3001 RMK A01 T03600054  RH  015%=      5-min Rain = 0
KSB1 032227Z 19002KT 36/05 A3001 RMK A01 T03590053  RH  015%=      5-min Rain = 0
KSB1 032228Z 30003KT 36/05 A3001 RMK A01 T03580053  RH  015%=      5-min Rain = 0
KSB1 032229Z 32004G9KT 36/05 A3001 RMK A01 T03570053  RH  015%=      5-min Rain = 0
KSB1 032230Z 27007KT 36/05 A3001 RMK A01 T03570054  RH  015%=      5-min Rain = 0
KSB1 032231Z 26008KT 36/05 A3001 RMK A01 T03590052  RH  015%=      5-min Rain = 0
KSB1 032232Z 29007KT 36/05 A3001 RMK A01 T03590051  RH  015%=      5-min Rain = 0
KSB1 032233Z 31008KT 36/06 A3001 RMK A01 T03600056  RH  015%=      5-min Rain = 0
KSB1 032234Z 31010KT 36/06 A3001 RMK A01 T03630058  RH  015%=      5-min Rain = 0
KSB1 032235Z 31008KT 36/06 A3001 RMK A01 T03610058  RH  015%=      5-min Rain = 0
KSB1 032236Z 32007KT 36/06 A3001 RMK A01 T03620059  RH  015%=      5-min Rain = 0
KSB1 032237Z 33004KT 36/06 A3001 RMK A01 T03620060  RH  016%=      5-min Rain = 0
KSB1 032238Z 30004KT 37/06 A3001 RMK A01 T03660059  RH  015%=      5-min Rain = 0
KSB1 032239Z 31005KT 37/06 A3001 RMK A01 T03680056  RH  015%=      5-min Rain = 0
KSB1 032240Z 32005KT 37/06 A3001 RMK A01 T03700057  RH  015%=      5-min Rain = 0
KSB1 032241Z 36008G14KT 37/06 A3001 RMK A01 T03720061  RH  015%=      5-min Rain = 0
KSB1 032242Z 35011KT 37/06 A30 RMK A01 T03730061  RH  015%=      5-min Rain = 0
KSB1 032243Z 33010KT 37/06 A30 RMK A01 T03740062  RH  015%=      5-min Rain = 0
KSB1 032244Z 34008KT 37/06 A3001 RMK A01 T03730061  RH  015%=      5-min Rain = 0
KSB1 032245Z 33006KT 37/06 A3001 RMK A01 T03660060  RH  015%=      5-min Rain = 0
KSB1 032246Z 34010G16KT 36/06 A3001 RMK A01 T03640062  RH  016%=      5-min Rain = 0
KSB1 032247Z 31013G18KT 37/06 A3001 RMK A01 T03650061  RH  015%=      5-min Rain = 0
KSB1 032248Z 32011KT 36/06 A3001 RMK A01 T03630060  RH  015%=      5-min Rain = 0
KSB1 032249Z 33008KT 36/06 A3001 RMK A01 T03570058  RH  016%=      5-min Rain = 0
KSB1 032250Z 33009KT 36/06 A3001 RMK A01 T03550060  RH  016%=      5-min Rain = 0
KSB1 032251Z 34009KT 36/06 A30 RMK A01 T03570060  RH  016%=      5-min Rain = 0
KSB1 032252Z 34011KT 36/06 A30 RMK A01 T03580060  RH  016%=      5-min Rain = 0
KSB1 032253Z 33011KT 36/06 A30 RMK A01 T03580060  RH  016%=      5-min Rain = 0
KSB1 032254Z 31011KT 36/06 A30 RMK A01 T03570060  RH  016%=      5-min Rain = 0
KSB1 032255Z 31008KT 36/06 A30 RMK A01 T03560059  RH  016%=      5-min Rain = 0
KSB1 032256Z 32006KT 36/06 A30 RMK A01 T03560060  RH  016%=      5-min Rain = 0
KSB1 032257Z 33010KT 36/06 A30 RMK A01 T03570060  RH  016%=      5-min Rain = 0
KSB1 032258Z 33011KT 36/06 A30 RMK A01 T03580060  RH  016%=      5-min Rain = 0
KSB1 032259Z 31008KT 36/06 A30 RMK A01 T03600061  RH  016%=      5-min Rain = 0
KSB1 032300Z 31007KT 36/06 A30 RMK A01 T03630062  RH  016%=      5-min Rain = 0
KSB1 032301Z 30007KT 37/06 A30 RMK A01 T03650061  RH  015%=      5-min Rain = 0
KSB1 032302Z 33006KT 36/06 A30 RMK A01 T03640060  RH  015%=      5-min Rain = 0
KSB1 032303Z 31005KT 36/06 A30 RMK A01 T03630060  RH  015%=      5-min Rain = 0
KSB1 032304Z 25006KT 36/06 A30 RMK A01 T03620060  RH  016%=      5-min Rain = 0
KSB1 032305Z 25007KT 36/06 A30 RMK A01 T03640062  RH  016%=      5-min Rain = 0
KSB1 032306Z 27007KT 37/06 A30 RMK A01 T03650061  RH  015%=      5-min Rain = 0
KSB1 032307Z 28012KT 37/06 A30 RMK A01 T03650063  RH  016%=      5-min Rain = 0
KSB1 032308Z 28012KT 37/07 A30 RMK A01 T03660065  RH  016%=      5-min Rain = 0
KSB1 032309Z 28013KT 36/07 A30 RMK A01 T03630065  RH  016%=      5-min Rain = 0
KSB1 032310Z 28013KT 36/07 A30 RMK A01 T03620065  RH  016%=      5-min Rain = 0
KSB1 032311Z 27011KT 36/06 A30 RMK A01 T03610064  RH  016%=      5-min Rain = 0
KSB1 032312Z 27010KT 36/06 A30 RMK A01 T03580063  RH  016%=      5-min Rain = 0
KSB1 032313Z 28012KT 36/06 A30 RMK A01 T03590064  RH  016%=      5-min Rain = 0
KSB1 032314Z 26012KT 36/07 A30 RMK A01 T03600065  RH  016%=      5-min Rain = 0
KSB1 032315Z 26014KT 36/07 A30 RMK A01 T03600065  RH  016%=      5-min Rain = 0
KSB1 032316Z 29014KT 36/06 A30 RMK A01 T03590064  RH  016%=      5-min Rain = 0
KSB1 032317Z 28010KT 36/06 A30 RMK A01 T03580064  RH  016%=      5-min Rain = 0
KSB1 032318Z 27010KT 36/06 A30 RMK A01 T03570064  RH  016%=      5-min Rain = 0
KSB1 032319Z 28007KT 36/06 A30 RMK A01 T03570064  RH  016%=      5-min Rain = 0
KSB1 032320Z 29004KT 36/06 A30 RMK A01 T03550064  RH  017%=      5-min Rain = 0
KSB1 032321Z 30008KT 36/07 A30 RMK A01 T03550065  RH  017%=      5-min Rain = 0
KSB1 032322Z 29008G14KT 36/07 A30 RMK A01 T03550065  RH  017%=      5-min Rain = 0
KSB1 032323Z 28013KT 36/07 A2999 RMK A01 T03580066  RH  017%=      5-min Rain = 0
KSB1 032324Z 29011KT 36/07 A30 RMK A01 T03600065  RH  016%=      5-min Rain = 0
KSB1 032325Z 31009KT 36/07 A30 RMK A01 T03610066  RH  016%=      5-min Rain = 0
KSB1 032326Z 33014KT 36/07 A2999 RMK A01 T03620066  RH  016%=      5-min Rain = 0
KSB1 032327Z 31014KT 36/07 A2999 RMK A01 T03630066  RH  016%=      5-min Rain = 0
KSB1 032328Z 30011KT 36/07 A2999 RMK A01 T03620066  RH  016%=      5-min Rain = 0
KSB1 032329Z 31012G17KT 36/07 A30 RMK A01 T03630067  RH  016%=      5-min Rain = 0
KSB1 032330Z 30012KT 36/07 A2999 RMK A01 T03640066  RH  016%=      5-min Rain = 0
KSB1 032331Z 29010KT 36/07 A30 RMK A01 T03630066  RH  016%=      5-min Rain = 0
KSB1 032332Z 30010KT 36/07 A30 RMK A01 T03610066  RH  016%=      5-min Rain = 0
KSB1 032333Z 32008KT 36/07 A30 RMK A01 T03610066  RH  016%=      5-min Rain = 0
KSB1 032334Z 31009KT 36/07 A30 RMK A01 T03600067  RH  016%=      5-min Rain = 0
KSB1 032335Z 32008KT 36/07 A30 RMK A01 T03620067  RH  016%=      5-min Rain = 0
KSB1 032336Z 30009KT 37/07 A30 RMK A01 T03650067  RH  016%=      5-min Rain = 0
KSB1 032337Z 32005KT 36/07 A30 RMK A01 T03630066  RH  016%=      5-min Rain = 0
KSB1 032338Z 32008KT 36/07 A2999 RMK A01 T03620066  RH  016%=      5-min Rain = 0
KSB1 032339Z 29007KT 36/07 A30 RMK A01 T03600065  RH  016%=      5-min Rain = 0
KSB1 032340Z 29009KT 36/06 A2999 RMK A01 T03560063  RH  016%=      5-min Rain = 0
KSB1 032341Z 31007KT 36/06 A2999 RMK A01 T03560064  RH  017%=      5-min Rain = 0
KSB1 032342Z 33005KT 36/06 A2999 RMK A01 T03560064  RH  017%=      5-min Rain = 0
KSB1 032343Z 33012KT 36/07 A2999 RMK A01 T03560065  RH  017%=      5-min Rain = 0
KSB1 032344Z 34007KT 36/07 A2999 RMK A01 T03560065  RH  017%=      5-min Rain = 0
KSB1 032345Z 33006KT 36/07 A2999 RMK A01 T03560065  RH  017%=      5-min Rain = 0
KSB1 032346Z 33007KT 36/07 A2999 RMK A01 T03550066  RH  017%=      5-min Rain = 0
KSB1 032347Z 35004KT 35/07 A2999 RMK A01 T03530065  RH  017%=      5-min Rain = 0
KSB1 032348Z 00001KT 35/07 A2999 RMK A01 T03520065  RH  017%=      5-min Rain = 0
KSB1 032349Z 00000KT 35/07 A2999 RMK A01 T03520065  RH  017%=      5-min Rain = 0
KSB1 032350Z 27002KT 35/07 A2999 RMK A01 T03530065  RH  017%=      5-min Rain = 0
KSB1 032351Z 31003KT 36/07 A2999 RMK A01 T03550065  RH  017%=      5-min Rain = 0
KSB1 032352Z 31003KT 36/07 A2999 RMK A01 T03550065  RH  017%=      5-min Rain = 0
KSB1 032353Z 33007KT 36/07 A2999 RMK A01 T03550065  RH  017%=      5-min Rain = 0
KSB1 032354Z 32004KT 36/06 A2999 RMK A01 T03550064  RH  017%=      5-min Rain = 0
KSB1 032355Z 35004KT 35/06 A2999 RMK A01 T03540064  RH  017%=      5-min Rain = 0
KSB1 032356Z 35005KT 35/06 A2999 RMK A01 T03540063  RH  017%=      5-min Rain = 0
KSB1 032357Z 33008KT 35/06 A2999 RMK A01 T03530063  RH  017%=      5-min Rain = 0
KSB1 032358Z 33008KT 36/06 A2999 RMK A01 T03570063  RH  016%=      5-min Rain = 0
KSB1 032359Z 31007KT 36/06 A2999 RMK A01 T03600062  RH  016%=      5-min Rain = 0
KSB1 040000Z 30003KT 36/06 A2999 RMK A01 T03590062  RH  016%=      5-min Rain = 0
KSB1 040001Z 27003KT 36/06 A2999 RMK A01 T03590062  RH  016%=      5-min Rain = 0
KSB1 040002Z 27005KT 36/06 A2999 RMK A01 T03600062  RH  016%=      5-min Rain = 0
KSB1 040003Z 28004KT 36/06 A2999 RMK A01 T03600062  RH  016%=      5-min Rain = 0
KSB1 040004Z 27004KT 36/06 A2999 RMK A01 T03590062  RH  016%=      5-min Rain = 0
KSB1 040005Z 26004KT 36/06 A2999 RMK A01 T03560061  RH  016%=      5-min Rain = 0
KSB1 040006Z 33003KT 36/06 A2999 RMK A01 T03550062  RH  016%=      5-min Rain = 0
KSB1 040007Z 33007KT 36/06 A2999 RMK A01 T03560062  RH  016%=      5-min Rain = 0
KSB1 040008Z 33007KT 36/06 A2999 RMK A01 T03550062  RH  016%=      5-min Rain = 0
KSB1 040009Z 32004KT 35/06 A2999 RMK A01 T03530061  RH  016%=      5-min Rain = 0
KSB1 040010Z 27005KT 35/06 A2999 RMK A01 T03510062  RH  017%=      5-min Rain = 0
KSB1 040011Z 28006KT 35/06 A2999 RMK A01 T03510061  RH  017%=      5-min Rain = 0
KSB1 040012Z 30003KT 35/06 A2999 RMK A01 T03510060  RH  016%=      5-min Rain = 0
KSB1 040013Z 28006KT 35/06 A2999 RMK A01 T03500059  RH  017%=      5-min Rain = 0
KSB1 040014Z 29005KT 35/06 A2999 RMK A01 T03510060  RH  017%=      5-min Rain = 0
KSB1 040015Z 27004KT 35/06 A2999 RMK A01 T03510059  RH  016%=      5-min Rain = 0
KSB1 040016Z 25005KT 35/06 A2999 RMK A01 T03500058  RH  016%=      5-min Rain = 0
KSB1 040017Z 26006KT 35/06 A2999 RMK A01 T03490058  RH  016%=      5-min Rain = 0
KSB1 040018Z 28005KT 35/06 A2999 RMK A01 T03510059  RH  016%=      5-min Rain = 0
KSB1 040019Z 32005KT 35/06 A2999 RMK A01 T03540059  RH  016%=      5-min Rain = 0
KSB1 040020Z 33008G14KT 36/06 A2999 RMK A01 T03550058  RH  016%=      5-min Rain = 0
KSB1 040021Z 33012KT 36/06 A2999 RMK A01 T03570056  RH  016%=      5-min Rain = 0
KSB1 040022Z 32011KT 36/06 A2998 RMK A01 T03580056  RH  015%=      5-min Rain = 0
KSB1 040023Z 31007KT 36/06 A2999 RMK A01 T03570055  RH  015%=      5-min Rain = 0
KSB1 040024Z 34009KT 36/06 A2999 RMK A01 T03580056  RH  015%=      5-min Rain = 0
KSB1 040025Z 33007KT 36/06 A2999 RMK A01 T03580055  RH  015%=      5-min Rain = 0
KSB1 040026Z 31009KT 36/06 A2999 RMK A01 T03580056  RH  015%=      5-min Rain = 0
KSB1 040027Z 32008KT 36/06 A2999 RMK A01 T03590057  RH  015%=      5-min Rain = 0
KSB1 040028Z 32009KT 36/06 A2999 RMK A01 T03610057  RH  015%=      5-min Rain = 0
KSB1 040029Z 33010KT 36/06 A2999 RMK A01 T03610056  RH  015%=      5-min Rain = 0
KSB1 040030Z 33011KT 36/06 A2999 RMK A01 T03590056  RH  015%=      5-min Rain = 0
KSB1 040031Z 32009KT 36/06 A2999 RMK A01 T03570055  RH  016%=      5-min Rain = 0
KSB1 040032Z 32007KT 36/06 A2999 RMK A01 T03550056  RH  016%=      5-min Rain = 0
KSB1 040033Z 32009KT 36/06 A2998 RMK A01 T03560056  RH  016%=      5-min Rain = 0
KSB1 040034Z 31009KT 36/06 A2998 RMK A01 T03560055  RH  016%=      5-min Rain = 0
KSB1 040035Z 33009KT 36/06 A2999 RMK A01 T03560056  RH  016%=      5-min Rain = 0
KSB1 040036Z 32008KT 36/06 A2999 RMK A01 T03550056  RH  016%=      5-min Rain = 0
KSB1 040037Z 32006KT 35/06 A2999 RMK A01 T03540056  RH  016%=      5-min Rain = 0
KSB1 040038Z 31008KT 35/06 A2999 RMK A01 T03540056  RH  016%=      5-min Rain = 0
KSB1 040039Z 32006KT 35/06 A2999 RMK A01 T03530056  RH  016%=      5-min Rain = 0
KSB1 040040Z 30006KT 35/06 A2999 RMK A01 T03520055  RH  016%=      5-min Rain = 0
KSB1 040041Z 30006KT 35/06 A2999 RMK A01 T03520055  RH  016%=      5-min Rain = 0
KSB1 040042Z 32007KT 35/06 A2999 RMK A01 T03520055  RH  016%=      5-min Rain = 0
KSB1 040043Z 32005KT 35/06 A2999 RMK A01 T03530056  RH  016%=      5-min Rain = 0
KSB1 040044Z 34005KT 35/06 A2999 RMK A01 T03540056  RH  016%=      5-min Rain = 0
KSB1 040045Z 01006KT 36/06 A2999 RMK A01 T03550057  RH  016%=      5-min Rain = 0
KSB1 040046Z 01007KT 35/06 A2999 RMK A01 T03540056  RH  016%=      5-min Rain = 0
KSB1 040047Z 03004KT 35/06 A2999 RMK A01 T03510055  RH  016%=      5-min Rain = 0
KSB1 040048Z 03005KT 35/06 A2999 RMK A01 T03500055  RH  016%=      5-min Rain = 0
KSB1 040049Z 02006KT 35/06 A2999 RMK A01 T03490055  RH  016%=      5-min Rain = 0
KSB1 040050Z 36006KT 35/06 A2999 RMK A01 T03490056  RH  016%=      5-min Rain = 0
KSB1 040051Z 01006KT 35/06 A2999 RMK A01 T03500056  RH  016%=      5-min Rain = 0
KSB1 040052Z 00004KT 35/06 A2999 RMK A01 T03500056  RH  016%=      5-min Rain = 0
KSB1 040053Z 01004KT 35/06 A2999 RMK A01 T03500056  RH  016%=      5-min Rain = 0
KSB1 040054Z 00005KT 35/06 A2999 RMK A01 T03500056  RH  016%=      5-min Rain = 0
KSB1 040055Z 01004KT 35/06 A2999 RMK A01 T03490055  RH  016%=      5-min Rain = 0
KSB1 040056Z 02006KT 35/06 A2999 RMK A01 T03490056  RH  016%=      5-min Rain = 0
KSB1 040057Z 01008KT 35/06 A2999 RMK A01 T03490060  RH  017%=      5-min Rain = 0
KSB1 040058Z 01008KT 35/06 A2999 RMK A01 T03490062  RH  017%=      5-min Rain = 0
KSB1 040059Z 02007KT 35/06 A2999 RMK A01 T03490062  RH  017%=      5-min Rain = 0
KSB1 040100Z 02008KT 35/06 A2999 RMK A01 T03480063  RH  017%=      5-min Rain = 0
KSB1 040101Z 04007KT 35/06 A2999 RMK A01 T03490062  RH  017%=      5-min Rain = 0
KSB1 040102Z 04008KT 35/06 A2999 RMK A01 T03490062  RH  017%=      5-min Rain = 0
KSB1 040103Z 04010KT 35/06 A2999 RMK A01 T03490063  RH  017%=      5-min Rain = 0
KSB1 040104Z 02007KT 35/06 A2999 RMK A01 T03490063  RH  017%=      5-min Rain = 0
KSB1 040105Z 36009KT 35/06 A2999 RMK A01 T03480063  RH  017%=      5-min Rain = 0
KSB1 040106Z 35006KT 35/06 A2999 RMK A01 T03470061  RH  017%=      5-min Rain = 0
KSB1 040107Z 35005KT 35/06 A2999 RMK A01 T03470061  RH  017%=      5-min Rain = 0
KSB1 040108Z 02005KT 35/06 A2999 RMK A01 T03460061  RH  017%=      5-min Rain = 0
KSB1 040109Z 03005KT 35/06 A2999 RMK A01 T03450061  RH  017%=      5-min Rain = 0
KSB1 040110Z 03005KT 35/06 A2999 RMK A01 T03460062  RH  017%=      5-min Rain = 0
KSB1 040111Z 06008KT 35/07 A2999 RMK A01 T03470065  RH  018%=      5-min Rain = 0
KSB1 040112Z 06011KT 35/08 A2999 RMK A01 T03470076  RH  019%=      5-min Rain = 0
KSB1 040113Z 06009KT 34/08 A2999 RMK A01 T03440080  RH  020%=      5-min Rain = 0
KSB1 040114Z 06010KT 34/08 A2999 RMK A01 T03420080  RH  020%=      5-min Rain = 0
KSB1 040115Z 06009KT 34/08 A2999 RMK A01 T03410080  RH  020%=      5-min Rain = 0
KSB1 040116Z 06012KT 34/08 A2999 RMK A01 T03400080  RH  020%=      5-min Rain = 0
KSB1 040117Z 06014G19KT 34/08 A2999 RMK A01 T03400079  RH  020%=      5-min Rain = 0
KSB1 040118Z 07018KT 34/09 A2999 RMK A01 T03370088  RH  022%=      5-min Rain = 0
KSB1 040119Z 06016KT 33/09 A2999 RMK A01 T03320091  RH  023%=      5-min Rain = 0
KSB1 040120Z 07016KT 33/09 A2999 RMK A01 T03290091  RH  023%=      5-min Rain = 0
KSB1 040121Z 07015KT 33/09 A2999 RMK A01 T03270090  RH  023%=      5-min Rain = 0
KSB1 040122Z 06013G18KT 33/09 A2999 RMK A01 T03260089  RH  023%=      5-min Rain = 0
KSB1 040123Z 07017KT 33/09 A2999 RMK A01 T03260088  RH  023%=      5-min Rain = 0
KSB1 040124Z 07017KT 33/09 A2999 RMK A01 T03260087  RH  023%=      5-min Rain = 0
KSB1 040125Z 07016KT 33/09 A2999 RMK A01 T03260087  RH  023%=      5-min Rain = 0
KSB1 040126Z 07012KT 33/09 A2999 RMK A01 T03260088  RH  023%=      5-min Rain = 0
KSB1 040127Z 07012KT 33/09 A2999 RMK A01 T03250087  RH  023%=      5-min Rain = 0
KSB1 040128Z 07015KT 33/09 A2999 RMK A01 T03260085  RH  023%=      5-min Rain = 0
KSB1 040129Z 07015KT 33/09 A2999 RMK A01 T03250085  RH  023%=      5-min Rain = 0
KSB1 040130Z 06013KT 32/08 A2999 RMK A01 T03240084  RH  023%=      5-min Rain = 0
KSB1 040131Z 06012KT 32/08 A2999 RMK A01 T03240084  RH  023%=      5-min Rain = 0
KSB1 040132Z 07010KT 32/08 A2999 RMK A01 T03240083  RH  023%=      5-min Rain = 0
KSB1 040133Z 06012KT 32/08 A2999 RMK A01 T03240083  RH  023%=      5-min Rain = 0
KSB1 040134Z 07010KT 32/08 A2999 RMK A01 T03240083  RH  023%=      5-min Rain = 0
KSB1 040135Z 07009KT 32/08 A2999 RMK A01 T03230083  RH  023%=      5-min Rain = 0
KSB1 040136Z 06010KT 32/08 A2999 RMK A01 T03230083  RH  023%=      5-min Rain = 0
KSB1 040137Z 07009KT 32/08 A30 RMK A01 T03230082  RH  023%=      5-min Rain = 0
KSB1 040138Z 07010KT 32/08 A30 RMK A01 T03220082  RH  023%=      5-min Rain = 0
KSB1 040139Z 07010KT 32/08 A30 RMK A01 T03220081  RH  023%=      5-min Rain = 0
KSB1 040140Z 06008KT 32/08 A30 RMK A01 T03210081  RH  023%=      5-min Rain = 0
KSB1 040141Z 06008KT 32/08 A30 RMK A01 T03210081  RH  023%=      5-min Rain = 0
KSB1 040142Z 05007KT 32/08 A30 RMK A01 T03210081  RH  023%=      5-min Rain = 0
KSB1 040143Z 05006KT 32/08 A30 RMK A01 T03200081  RH  023%=      5-min Rain = 0
KSB1 040144Z 05008KT 32/08 A30 RMK A01 T03200081  RH  023%=      5-min Rain = 0
KSB1 040145Z 05007KT 32/08 A30 RMK A01 T03200081  RH  023%=      5-min Rain = 0
KSB1 040146Z 05007KT 32/08 A30 RMK A01 T03190081  RH  023%=      5-min Rain = 0
KSB1 040147Z 05007KT 32/08 A30 RMK A01 T03190081  RH  023%=      5-min Rain = 0
KSB1 040148Z 05007KT 32/08 A30 RMK A01 T03190081  RH  023%=      5-min Rain = 0
KSB1 040149Z 05007KT 32/08 A30 RMK A01 T03190081  RH  023%=      5-min Rain = 0
KSB1 040150Z 05006KT 32/08 A30 RMK A01 T03180081  RH  023%=      5-min Rain = 0
KSB1 040151Z 06007KT 32/08 A30 RMK A01 T03180081  RH  023%=      5-min Rain = 0
KSB1 040152Z 06006KT 32/08 A30 RMK A01 T03170081  RH  023%=      5-min Rain = 0
KSB1 040153Z 07006KT 32/08 A30 RMK A01 T03170081  RH  023%=      5-min Rain = 0
KSB1 040154Z 07005KT 32/08 A30 RMK A01 T03160081  RH  023%=      5-min Rain = 0
KSB1 040155Z 07005KT 32/08 A30 RMK A01 T03160081  RH  023%=      5-min Rain = 0
KSB1 040156Z 07005KT 32/08 A30 RMK A01 T03160081  RH  023%=      5-min Rain = 0
KSB1 040157Z 07004KT 32/08 A30 RMK A01 T03150081  RH  023%=      5-min Rain = 0
KSB1 040158Z 07003KT 32/08 A30 RMK A01 T03150081  RH  023%=      5-min Rain = 0
KSB1 040159Z 08002KT 31/08 A30 RMK A01 T03140081  RH  023%=      5-min Rain = 0
KSB1 040200Z 09002KT 31/08 A30 RMK A01 T03140081  RH  023%=      5-min Rain = 0
KSB1 040201Z 09002KT 31/08 A30 RMK A01 T03130081  RH  024%=      5-min Rain = 0
KSB1 040202Z 10003KT 31/08 A30 RMK A01 T03130081  RH  024%=      5-min Rain = 0
KSB1 040203Z 10002KT 31/08 A30 RMK A01 T03130081  RH  024%=      5-min Rain = 0
KSB1 040204Z 11003KT 31/08 A30 RMK A01 T03130081  RH  024%=      5-min Rain = 0
KSB1 040205Z 11003KT 31/08 A30 RMK A01 T03120081  RH  024%=      5-min Rain = 0
KSB1 040206Z 11003KT 31/08 A30 RMK A01 T03120081  RH  024%=      5-min Rain = 0
KSB1 040207Z 11002KT 31/08 A30 RMK A01 T03110081  RH  024%=      5-min Rain = 0
KSB1 040208Z 12002KT 31/08 A30 RMK A01 T03110081  RH  024%=      5-min Rain = 0
KSB1 040209Z 13003KT 31/08 A30 RMK A01 T03100081  RH  024%=      5-min Rain = 0
KSB1 040210Z 12004KT 31/08 A30 RMK A01 T03100081  RH  024%=      5-min Rain = 0
KSB1 040211Z 12003KT 31/08 A30 RMK A01 T03100080  RH  024%=      5-min Rain = 0
KSB1 040212Z 12005KT 31/08 A30 RMK A01 T03090080  RH  024%=      5-min Rain = 0
KSB1 040213Z 12006KT 31/08 A30 RMK A01 T03090082  RH  024%=      5-min Rain = 0
KSB1 040214Z 13004KT 31/08 A30 RMK A01 T03080081  RH  024%=      5-min Rain = 0
KSB1 040215Z 12004KT 31/08 A30 RMK A01 T03080081  RH  024%=      5-min Rain = 0
KSB1 040216Z 13005KT 31/08 A30 RMK A01 T03070081  RH  024%=      5-min Rain = 0
KSB1 040217Z 13004KT 31/08 A30 RMK A01 T03060081  RH  024%=      5-min Rain = 0
KSB1 040218Z 13004KT 31/08 A30 RMK A01 T03060080  RH  025%=      5-min Rain = 0
KSB1 040219Z 14003KT 31/08 A30 RMK A01 T03050081  RH  025%=      5-min Rain = 0
KSB1 040220Z 14002KT 30/08 A30 RMK A01 T03040082  RH  025%=      5-min Rain = 0
KSB1 040221Z 17002KT 30/08 A30 RMK A01 T03040082  RH  025%=      5-min Rain = 0
KSB1 040222Z 17003KT 30/08 A30 RMK A01 T03030081  RH  025%=      5-min Rain = 0
KSB1 040223Z 16003KT 30/08 A30 RMK A01 T03020081  RH  025%=      5-min Rain = 0
KSB1 040224Z 17003KT 30/08 A30 RMK A01 T03000080  RH  025%=      5-min Rain = 0
KSB1 040225Z 16004KT 30/08 A30 RMK A01 T02990080  RH  025%=      5-min Rain = 0
KSB1 040226Z 15005KT 30/08 A30 RMK A01 T02980080  RH  026%=      5-min Rain = 0
KSB1 040227Z 16006KT 30/08 A30 RMK A01 T02960079  RH  026%=      5-min Rain = 0
KSB1 040228Z 16006KT 29/08 A3001 RMK A01 T02940079  RH  026%=      5-min Rain = 0
KSB1 040229Z 16006KT 29/08 A3001 RMK A01 T02920081  RH  027%=      5-min Rain = 0
KSB1 040230Z 17005KT 29/08 A3001 RMK A01 T02910082  RH  027%=      5-min Rain = 0
KSB1 040231Z 18004KT 29/08 A3001 RMK A01 T02910083  RH  027%=      5-min Rain = 0
KSB1 040232Z 19004KT 29/08 A3001 RMK A01 T02910084  RH  027%=      5-min Rain = 0
KSB1 040233Z 19004KT 29/09 A3001 RMK A01 T02910085  RH  028%=      5-min Rain = 0
KSB1 040234Z 20004KT 29/09 A3001 RMK A01 T02910085  RH  027%=      5-min Rain = 0
KSB1 040235Z 21003KT 29/09 A3001 RMK A01 T02910085  RH  027%=      5-min Rain = 0
KSB1 040236Z 23002KT 29/08 A3001 RMK A01 T02910084  RH  027%=      5-min Rain = 0
KSB1 040237Z 22002KT 29/08 A3001 RMK A01 T02900084  RH  027%=      5-min Rain = 0
KSB1 040238Z 22003KT 29/08 A3001 RMK A01 T02900084  RH  028%=      5-min Rain = 0
KSB1 040239Z 20004KT 29/09 A3001 RMK A01 T02910085  RH  028%=      5-min Rain = 0
KSB1 040240Z 18004KT 29/09 A3001 RMK A01 T02920086  RH  028%=      5-min Rain = 0
KSB1 040241Z 18002KT 29/09 A3001 RMK A01 T02920086  RH  028%=      5-min Rain = 0
KSB1 040242Z 17003KT 29/09 A3001 RMK A01 T02930086  RH  027%=      5-min Rain = 0
KSB1 040243Z 15005KT 29/09 A3001 RMK A01 T02930087  RH  028%=      5-min Rain = 0
KSB1 040244Z 15003KT 29/09 A3001 RMK A01 T02930088  RH  028%=      5-min Rain = 0
KSB1 040245Z 15004KT 29/09 A3001 RMK A01 T02930087  RH  028%=      5-min Rain = 0
KSB1 040246Z 14004KT 29/09 A3001 RMK A01 T02930088  RH  028%=      5-min Rain = 0
KSB1 040247Z 14005KT 29/09 A3001 RMK A01 T02930088  RH  028%=      5-min Rain = 0
KSB1 040248Z 14004KT 29/09 A3001 RMK A01 T02930089  RH  028%=      5-min Rain = 0
KSB1 040249Z 13004KT 29/09 A3001 RMK A01 T02920088  RH  028%=      5-min Rain = 0
KSB1 040250Z 13004KT 29/09 A3001 RMK A01 T02920088  RH  028%=      5-min Rain = 0
KSB1 040251Z 13004KT 29/09 A3001 RMK A01 T02920088  RH  028%=      5-min Rain = 0
KSB1 040252Z 14005KT 29/09 A3001 RMK A01 T02910088  RH  028%=      5-min Rain = 0
KSB1 040253Z 14005KT 29/09 A3001 RMK A01 T02910088  RH  028%=      5-min Rain = 0
KSB1 040254Z 14005KT 29/09 A3001 RMK A01 T02910089  RH  028%=      5-min Rain = 0
KSB1 040255Z 14005KT 29/09 A3001 RMK A01 T02900088  RH  028%=      5-min Rain = 0
KSB1 040256Z 15005KT 29/09 A3001 RMK A01 T02890088  RH  028%=      5-min Rain = 0
KSB1 040257Z 15005KT 29/09 A3001 RMK A01 T02880088  RH  028%=      5-min Rain = 0
KSB1 040258Z 15005KT 29/09 A3001 RMK A01 T02880088  RH  029%=      5-min Rain = 0
KSB1 040259Z 15005KT 29/09 A3001 RMK A01 T02870087  RH  029%=      5-min Rain = 0
KSB1 040300Z 16004KT 29/09 A3001 RMK A01 T02860087  RH  029%=      5-min Rain = 0
KSB1 040301Z 17004KT 28/09 A3001 RMK A01 T02840086  RH  029%=      5-min Rain = 0
KSB1 040302Z 18003KT 28/09 A3001 RMK A01 T02820086  RH  029%=      5-min Rain = 0
KSB1 040303Z 19003KT 28/09 A3001 RMK A01 T02810086  RH  029%=      5-min Rain = 0
KSB1 040304Z 23003KT 28/09 A3001 RMK A01 T02800085  RH  029%=      5-min Rain = 0
KSB1 040305Z 27004KT 28/09 A3001 RMK A01 T02790085  RH  030%=      5-min Rain = 0
KSB1 040306Z 27004KT 28/09 A3001 RMK A01 T02780086  RH  030%=      5-min Rain = 0
KSB1 040307Z 26003KT 28/09 A3001 RMK A01 T02800087  RH  030%=      5-min Rain = 0
KSB1 040308Z 27003KT 28/09 A3001 RMK A01 T02810088  RH  030%=      5-min Rain = 0
KSB1 040309Z 26003KT 28/09 A3001 RMK A01 T02820090  RH  030%=      5-min Rain = 0
KSB1 040310Z 26003KT 28/09 A3001 RMK A01 T02840091  RH  030%=      5-min Rain = 0
KSB1 040311Z 24003KT 29/09 A3001 RMK A01 T02850092  RH  030%=      5-min Rain = 0
KSB1 040312Z 21004KT 29/09 A3001 RMK A01 T02860092  RH  030%=      5-min Rain = 0
KSB1 040313Z 22005KT 29/09 A3001 RMK A01 T02870093  RH  030%=      5-min Rain = 0
KSB1 040314Z 20005KT 29/09 A3001 RMK A01 T02880093  RH  030%=      5-min Rain = 0
KSB1 040315Z 18004KT 29/09 A3001 RMK A01 T02880094  RH  030%=      5-min Rain = 0
KSB1 040316Z 19004KT 29/09 A3001 RMK A01 T02880093  RH  030%=      5-min Rain = 0
KSB1 040317Z 19003KT 29/09 A3001 RMK A01 T02880093  RH  030%=      5-min Rain = 0
KSB1 040318Z 20003KT 29/09 A3001 RMK A01 T02870093  RH  030%=      5-min Rain = 0
KSB1 040319Z 21003KT 29/09 A3001 RMK A01 T02860092  RH  030%=      5-min Rain = 0
KSB1 040320Z 21003KT 29/09 A3001 RMK A01 T02850091  RH  030%=      5-min Rain = 0
KSB1 040321Z 21003KT 28/09 A3001 RMK A01 T02830091  RH  030%=      5-min Rain = 0
KSB1 040322Z 22002KT 28/09 A3001 RMK A01 T02830091  RH  030%=      5-min Rain = 0
KSB1 040323Z 23002KT 28/09 A3001 RMK A01 T02820091  RH  030%=      5-min Rain = 0
KSB1 040324Z 23002KT 28/09 A3002 RMK A01 T02820091  RH  030%=      5-min Rain = 0
KSB1 040325Z 24001KT 28/09 A3002 RMK A01 T02820091  RH  030%=      5-min Rain = 0
KSB1 040326Z 21001KT 28/09 A3002 RMK A01 T02820091  RH  030%=      5-min Rain = 0
KSB1 040327Z 16001KT 28/09 A3002 RMK A01 T02820092  RH  030%=      5-min Rain = 0
KSB1 040328Z 14002KT 28/09 A3002 RMK A01 T02830093  RH  030%=      5-min Rain = 0
KSB1 040329Z 13003KT 28/09 A3002 RMK A01 T02830092  RH  030%=      5-min Rain = 0
KSB1 040330Z 13004KT 28/09 A3002 RMK A01 T02840093  RH  030%=      5-min Rain = 0
KSB1 040331Z 13003KT 29/09 A3002 RMK A01 T02850093  RH  030%=      5-min Rain = 0
KSB1 040332Z 12004KT 29/09 A3002 RMK A01 T02850092  RH  030%=      5-min Rain = 0
KSB1 040333Z 12003KT 29/09 A3002 RMK A01 T02850092  RH  030%=      5-min Rain = 0
KSB1 040334Z 13003KT 29/09 A3002 RMK A01 T02850092  RH  030%=      5-min Rain = 0
KSB1 040335Z 12004KT 29/09 A3002 RMK A01 T02850092  RH  030%=      5-min Rain = 0
KSB1 040336Z 11004KT 29/09 A3002 RMK A01 T02850093  RH  030%=      5-min Rain = 0
KSB1 040337Z 11004KT 29/09 A3002 RMK A01 T02860093  RH  030%=      5-min Rain = 0
KSB1 040338Z 11002KT 29/09 A3002 RMK A01 T02860094  RH  030%=      5-min Rain = 0
KSB1 040339Z 10003KT 29/09 A3002 RMK A01 T02860094  RH  030%=      5-min Rain = 0
KSB1 040340Z 11003KT 29/10 A3002 RMK A01 T02870095  RH  030%=      5-min Rain = 0
KSB1 040341Z 10003KT 29/09 A3003 RMK A01 T02860094  RH  030%=      5-min Rain = 0
KSB1 040342Z 10003KT 29/09 A3003 RMK A01 T02860094  RH  030%=      5-min Rain = 0
KSB1 040343Z 10006KT 29/10 A3003 RMK A01 T02860095  RH  030%=      5-min Rain = 0
KSB1 040344Z 11004KT 29/10 A3003 RMK A01 T02850098  RH  031%=      5-min Rain = 0
KSB1 040345Z 11004KT 29/10 A3003 RMK A01 T02850096  RH  031%=      5-min Rain = 0
KSB1 040346Z 12003KT 29/10 A3003 RMK A01 T02850096  RH  031%=      5-min Rain = 0
KSB1 040347Z 12003KT 28/10 A3003 RMK A01 T02840095  RH  031%=      5-min Rain = 0
KSB1 040348Z 13003KT 28/10 A3003 RMK A01 T02830095  RH  031%=      5-min Rain = 0
KSB1 040349Z 13003KT 28/10 A3003 RMK A01 T02820095  RH  031%=      5-min Rain = 0
KSB1 040350Z 13003KT 28/10 A3003 RMK A01 T02820095  RH  031%=      5-min Rain = 0
KSB1 040351Z 13003KT 28/10 A3003 RMK A01 T02810096  RH  031%=      5-min Rain = 0
KSB1 040352Z 14003KT 28/10 A3003 RMK A01 T02800095  RH  031%=      5-min Rain = 0
KSB1 040353Z 13003KT 28/10 A3003 RMK A01 T02790096  RH  032%=      5-min Rain = 0
KSB1 040354Z 13003KT 28/10 A3003 RMK A01 T02790095  RH  032%=      5-min Rain = 0
KSB1 040355Z 13003KT 28/10 A3003 RMK A01 T02780097  RH  032%=      5-min Rain = 0
KSB1 040356Z 14003KT 28/10 A3003 RMK A01 T02770097  RH  032%=      5-min Rain = 0
KSB1 040357Z 13003KT 28/10 A3003 RMK A01 T02770096  RH  032%=      5-min Rain = 0
KSB1 040358Z 14003KT 28/10 A3003 RMK A01 T02760097  RH  033%=      5-min Rain = 0
KSB1 040359Z 14003KT 28/10 A3003 RMK A01 T02760098  RH  033%=      5-min Rain = 0
KSB1 040400Z 12005KT 28/10 A3003 RMK A01 T02760101  RH  033%=      5-min Rain = 0
KSB1 040401Z 12006KT 28/10 A3003 RMK A01 T02770104  RH  034%=      5-min Rain = 0
KSB1 040402Z 12005KT 28/10 A3003 RMK A01 T02770104  RH  034%=      5-min Rain = 0
KSB1 040403Z 12005KT 28/10 A3003 RMK A01 T02780104  RH  034%=      5-min Rain = 0
KSB1 040404Z 12004KT 28/10 A3003 RMK A01 T02770103  RH  034%=      5-min Rain = 0
KSB1 040405Z 12003KT 28/10 A3003 RMK A01 T02770103  RH  034%=      5-min Rain = 0
KSB1 040406Z 12004KT 28/10 A3003 RMK A01 T02760102  RH  034%=      5-min Rain = 0
KSB1 040407Z 11004KT 28/10 A3003 RMK A01 T02750103  RH  034%=      5-min Rain = 0
KSB1 040408Z 11004KT 28/10 A3003 RMK A01 T02750104  RH  034%=      5-min Rain = 0
KSB1 040409Z 11004KT 28/11 A3003 RMK A01 T02750105  RH  034%=      5-min Rain = 0
KSB1 040410Z 11003KT 28/10 A3004 RMK A01 T02750104  RH  035%=      5-min Rain = 0
KSB1 040411Z 11003KT 27/10 A3004 RMK A01 T02740104  RH  035%=      5-min Rain = 0
KSB1 040412Z 10003KT 27/10 A3004 RMK A01 T02740104  RH  035%=      5-min Rain = 0
KSB1 040413Z 11003KT 27/10 A3004 RMK A01 T02730104  RH  035%=      5-min Rain = 0
KSB1 040414Z 10003KT 27/10 A3003 RMK A01 T02730104  RH  035%=      5-min Rain = 0
KSB1 040415Z 10003KT 27/10 A3004 RMK A01 T02720104  RH  035%=      5-min Rain = 0
KSB1 040416Z 11003KT 27/10 A3004 RMK A01 T02720104  RH  035%=      5-min Rain = 0
KSB1 040417Z 12004KT 27/10 A3004 RMK A01 T02710104  RH  035%=      5-min Rain = 0
KSB1 040418Z 12004KT 27/11 A3004 RMK A01 T02710105  RH  035%=      5-min Rain = 0
KSB1 040419Z 13004KT 27/11 A3004 RMK A01 T02710105  RH  035%=      5-min Rain = 0
KSB1 040420Z 13004KT 27/11 A3004 RMK A01 T02710105  RH  035%=      5-min Rain = 0
KSB1 040421Z 12003KT 27/11 A3004 RMK A01 T02710105  RH  035%=      5-min Rain = 0
KSB1 040422Z 13003KT 27/11 A3003 RMK A01 T02700105  RH  036%=      5-min Rain = 0
KSB1 040423Z 11003KT 27/11 A3004 RMK A01 T02700105  RH  036%=      5-min Rain = 0
KSB1 040424Z 13002KT 27/11 A3003 RMK A01 T02700105  RH  036%=      5-min Rain = 0
KSB1 040425Z 15002KT 27/11 A3004 RMK A01 T02700105  RH  036%=      5-min Rain = 0
KSB1 040426Z 16002KT 27/10 A3004 RMK A01 T02690104  RH  036%=      5-min Rain = 0
KSB1 040427Z 16002KT 27/10 A3004 RMK A01 T02670103  RH  036%=      5-min Rain = 0
KSB1 040428Z 13002KT 27/10 A3004 RMK A01 T02670104  RH  036%=      5-min Rain = 0
KSB1 040429Z 14002KT 27/11 A3004 RMK A01 T02670105  RH  036%=      5-min Rain = 0
KSB1 040430Z 14003KT 27/11 A3004 RMK A01 T02670105  RH  036%=      5-min Rain = 0
KSB1 040431Z 14003KT 27/10 A3004 RMK A01 T02670104  RH  036%=      5-min Rain = 0
KSB1 040432Z 13004KT 27/11 A3004 RMK A01 T02670105  RH  036%=      5-min Rain = 0
KSB1 040433Z 14003KT 27/11 A3004 RMK A01 T02670105  RH  036%=      5-min Rain = 0
KSB1 040434Z 13003KT 27/11 A3004 RMK A01 T02670105  RH  036%=      5-min Rain = 0
KSB1 040435Z 14003KT 27/10 A3004 RMK A01 T02670104  RH  036%=      5-min Rain = 0
KSB1 040436Z 13004KT 27/10 A3004 RMK A01 T02670104  RH  036%=      5-min Rain = 0
KSB1 040437Z 13004KT 27/10 A3004 RMK A01 T02670104  RH  036%=      5-min Rain = 0
KSB1 040438Z 12006KT 27/11 A3004 RMK A01 T02660105  RH  036%=      5-min Rain = 0
KSB1 040439Z 12006KT 27/11 A3004 RMK A01 T02670106  RH  036%=      5-min Rain = 0
KSB1 040440Z 11006KT 27/11 A3004 RMK A01 T02680106  RH  036%=      5-min Rain = 0
KSB1 040441Z 12006KT 27/11 A3004 RMK A01 T02680106  RH  036%=      5-min Rain = 0
KSB1 040442Z 12007KT 27/11 A3004 RMK A01 T02680106  RH  036%=      5-min Rain = 0
KSB1 040443Z 11005KT 27/11 A3004 RMK A01 T02670106  RH  036%=      5-min Rain = 0
KSB1 040444Z 12006KT 27/11 A3004 RMK A01 T02670105  RH  036%=      5-min Rain = 0
KSB1 040445Z 12006KT 27/11 A3004 RMK A01 T02680106  RH  036%=      5-min Rain = 0
KSB1 040446Z 12006KT 27/11 A3004 RMK A01 T02680106  RH  036%=      5-min Rain = 0
KSB1 040447Z 13006KT 27/11 A3004 RMK A01 T02670105  RH  036%=      5-min Rain = 0
KSB1 040448Z 13006KT 27/11 A3004 RMK A01 T02680106  RH  036%=      5-min Rain = 0
KSB1 040449Z 12005KT 27/11 A3004 RMK A01 T02680106  RH  036%=      5-min Rain = 0
KSB1 040450Z 12006KT 27/11 A3004 RMK A01 T02680106  RH  036%=      5-min Rain = 0
KSB1 040451Z 11007KT 27/11 A3004 RMK A01 T02690106  RH  036%=      5-min Rain = 0
KSB1 040452Z 12005KT 27/11 A3004 RMK A01 T02710107  RH  036%=      5-min Rain = 0
KSB1 040453Z 12003KT 27/11 A3004 RMK A01 T02720107  RH  036%=      5-min Rain = 0
KSB1 040454Z 12004KT 27/11 A3004 RMK A01 T02720107  RH  036%=      5-min Rain = 0
KSB1 040455Z 11003KT 27/11 A3004 RMK A01 T02710107  RH  036%=      5-min Rain = 0
KSB1 040456Z 12004KT 27/11 A3004 RMK A01 T02710107  RH  036%=      5-min Rain = 0
KSB1 040457Z 12004KT 27/11 A3004 RMK A01 T02710107  RH  036%=      5-min Rain = 0
KSB1 040458Z 11004KT 27/11 A3004 RMK A01 T02710107  RH  036%=      5-min Rain = 0
KSB1 040459Z 12004KT 27/11 A3004 RMK A01 T02710107  RH  036%=      5-min Rain = 0

Page generated in 0.0843 seconds.